M I D A S
Marine Information and Data Acquisition System
Tripno 1045 of the Zeeleeuw from 2006-03-07 09:15:18 to 2006-03-07 15:21:46
Back to CruiseResearch ActivitiesStationsMapUnderway DataData graphs

EquipmentUnitsComment
TimeDGPSUTC
LatitudeDGPSDM.mWGS84
LongitudeDGPSDM.mWGS84
TemperatureSBE03/SBE38deg celciusITS90
ConductivitySBE21S/mITS90
SalinitySBE21 Practical Salinity Units
ChlorophylAChelsea fluorimeterg/lCalibrated in Aceton
Missing or incorrect values are displayed as -999
Sea surface data collected by the RV Zeeleeuw from 2006-03-07 08:17:53 to 2006-03-07 15:35:08
                                                                                    Next 1000 lines
Time Latitude Longitude Temperature Conductivity Salinity ChlorophylA
2006-03-07 08:18:03 51°13.596 2°56.095 -999 2.578804 27.229194 1.443571
2006-03-07 08:18:08 51°13.596 2°56.095 -999 2.578597 27.225156 1.443571
2006-03-07 08:18:13 51°13.596 2°56.095 -999 2.578597 27.225156 1.443571
2006-03-07 08:18:18 51°13.596 2°56.095 -999 2.578597 27.225156 1.443571
2006-03-07 08:18:23 51°13.596 2°56.095 -999 2.578597 27.225156 1.443571
2006-03-07 08:18:28 51°13.595 2°56.094 -999 2.578494 27.223957 1.443571
2006-03-07 08:18:33 51°13.596 2°56.094 -999 2.578494 27.223957 1.443571
2006-03-07 08:18:38 51°13.596 2°56.094 -999 2.57839 27.223578 1.443571
2006-03-07 08:18:43 51°13.596 2°56.094 -999 2.57839 27.223578 1.443571
2006-03-07 08:18:48 51°13.596 2°56.094 -999 2.578287 27.2232 1.443571
2006-03-07 08:18:52 51°13.595 2°56.094 -999 2.578287 27.2232 1.477281
2006-03-07 08:18:58 51°13.595 2°56.094 -999 2.57808 27.221622 1.443571
2006-03-07 08:19:03 51°13.595 2°56.094 -999 2.578184 27.222001 1.443571
2006-03-07 08:19:08 51°13.595 2°56.094 -999 2.57808 27.220802 1.443571
2006-03-07 08:19:13 51°13.595 2°56.094 -999 2.57808 27.220802 1.443571
2006-03-07 08:19:18 51°13.595 2°56.094 -999 2.578184 27.222001 1.477281
2006-03-07 08:19:23 51°13.595 2°56.094 -999 2.578287 27.222379 1.477281
2006-03-07 08:19:28 51°13.595 2°56.094 -999 2.57839 27.223578 1.477281
2006-03-07 08:19:33 51°13.595 2°56.094 -999 2.57839 27.223578 1.477281
2006-03-07 08:19:38 51°13.595 2°56.095 -999 2.578287 27.221559 1.477281
2006-03-07 08:19:43 51°13.596 2°56.095 -999 2.578287 27.221559 1.477281
2006-03-07 08:19:48 51°13.596 2°56.095 -999 2.57839 27.221938 1.477281
2006-03-07 08:19:53 51°13.596 2°56.095 -999 2.57839 27.221118 1.477281
2006-03-07 08:19:58 51°13.596 2°56.095 -999 2.57839 27.220297 1.477281
2006-03-07 08:20:03 51°13.596 2°56.095 -999 2.57839 27.219477 1.477281
2006-03-07 08:20:08 51°13.596 2°56.095 -999 2.57839 27.219477 1.477281
2006-03-07 08:20:13 51°13.596 2°56.095 -999 2.57839 27.219477 1.477281
2006-03-07 08:20:18 51°13.596 2°56.095 -999 2.57839 27.219477 1.477281
2006-03-07 08:20:23 51°13.596 2°56.095 -999 2.57839 27.218657 1.477281
2006-03-07 08:20:28 51°13.596 2°56.095 -999 2.578494 27.219856 1.477281
2006-03-07 08:20:32 51°13.596 2°56.095 -999 2.578597 27.221875 1.477281
2006-03-07 08:20:38 51°13.596 2°56.095 -999 2.578804 27.223452 1.51099
2006-03-07 08:20:43 51°13.596 2°56.095 -999 2.578804 27.223452 1.51099
2006-03-07 08:20:48 51°13.597 2°56.095 -999 2.57901 27.22585 1.51099
2006-03-07 08:20:53 51°13.596 2°56.095 -999 2.579114 27.226228 1.477281
2006-03-07 08:20:58 51°13.596 2°56.095 -999 2.579217 27.227427 1.51099
2006-03-07 08:21:03 51°13.597 2°56.095 -999 2.579217 27.227427 1.51099
2006-03-07 08:21:08 51°13.597 2°56.095 -999 2.57932 27.227805 1.51099
2006-03-07 08:21:13 51°13.597 2°56.095 -999 2.57932 27.227805 1.51099
2006-03-07 08:21:18 51°13.597 2°56.095 -999 2.579527 27.230202 1.51099
2006-03-07 08:21:23 51°13.597 2°56.095 -999 2.57963 27.230581 1.51099
2006-03-07 08:21:28 51°13.597 2°56.095 -999 2.57963 27.230581 1.51099
2006-03-07 08:21:33 51°13.597 2°56.095 -999 2.57963 27.229761 1.51099
2006-03-07 08:21:38 51°13.597 2°56.095 -999 2.579734 27.230959 1.51099
2006-03-07 08:21:43 51°13.597 2°56.095 -999 2.579734 27.230959 1.51099
2006-03-07 08:21:48 51°13.597 2°56.095 -999 2.579734 27.230139 1.51099
2006-03-07 08:21:53 51°13.597 2°56.095 -999 2.579734 27.229319 1.51099
2006-03-07 08:21:58 51°13.597 2°56.095 -999 2.579734 27.230139 1.51099
2006-03-07 08:22:03 51°13.598 2°56.095 -999 2.579734 27.230139 1.51099
2006-03-07 08:22:08 51°13.598 2°56.095 -999 2.579837 27.230517 1.51099
2006-03-07 08:22:13 51°13.598 2°56.095 -999 2.579837 27.230517 1.51099
2006-03-07 08:22:18 51°13.598 2°56.095 -999 2.579837 27.230517 1.51099
2006-03-07 08:22:23 51°13.598 2°56.095 -999 2.57994 27.230896 1.5447
2006-03-07 08:22:28 51°13.599 2°56.095 -999 2.580044 27.232094 1.5447
2006-03-07 08:22:32 51°13.599 2°56.095 -999 2.580147 27.232473 1.51099
2006-03-07 08:22:38 51°13.599 2°56.095 -999 2.580354 27.234049 1.5447
2006-03-07 08:22:43 51°13.599 2°56.095 -999 2.580354 27.234049 1.5447
2006-03-07 08:22:48 51°13.599 2°56.095 -999 2.58056 27.237267 1.5447
2006-03-07 08:22:53 51°13.599 2°56.095 -999 2.58087 27.240042 1.51099
2006-03-07 08:22:58 51°13.599 2°56.095 -999 2.581284 27.244836 1.5447
2006-03-07 08:23:03 51°13.599 2°56.095 -999 2.581697 27.24963 1.5447
2006-03-07 08:23:08 51°13.599 2°56.095 -999 2.5818 27.250828 1.5447
2006-03-07 08:23:13 51°13.599 2°56.095 -999 2.5818 27.250828 1.5447
2006-03-07 08:23:18 51°13.599 2°56.095 -999 2.582317 27.256821 1.5447
2006-03-07 08:23:23 51°13.599 2°56.096 -999 2.58242 27.256378 1.5447
2006-03-07 08:23:28 51°13.599 2°56.096 -999 2.58335 27.267165 1.5447
2006-03-07 08:23:32 51°13.599 2°56.095 -999 2.585314 27.291583 1.5447
2006-03-07 08:23:38 51°13.598 2°56.095 -999 2.587484 27.319228 1.5447
2006-03-07 08:23:43 51°13.598 2°56.095 -999 2.587484 27.319228 1.5447
2006-03-07 08:23:48 51°13.598 2°56.095 -999 2.589654 27.345232 1.5447
2006-03-07 08:23:53 51°13.598 2°56.096 -999 2.590791 27.360072 1.5447
2006-03-07 08:23:58 51°13.598 2°56.095 -999 2.591514 27.370117 1.578409
2006-03-07 08:24:03 51°13.598 2°56.096 -999 2.592134 27.378964 1.5447
2006-03-07 08:24:08 51°13.599 2°56.096 -999 2.592961 27.38856 1.578409
2006-03-07 08:24:12 51°13.599 2°56.095 -999 2.592961 27.38856 1.578409
2006-03-07 08:24:18 51°13.599 2°56.096 -999 2.593374 27.394184 1.578409
2006-03-07 08:24:23 51°13.599 2°56.096 -999 2.593684 27.396958 1.578409
2006-03-07 08:24:28 51°13.599 2°56.095 -999 2.593995 27.401383 1.578409
2006-03-07 08:24:33 51°13.599 2°56.095 -999 2.593581 27.395758 1.578409
2006-03-07 08:24:38 51°13.599 2°56.095 -999 2.592754 27.386161 1.578409
2006-03-07 08:24:43 51°13.598 2°56.095 -999 2.592754 27.386161 1.578409
2006-03-07 08:24:48 51°13.599 2°56.095 -999 2.592651 27.384137 1.578409
2006-03-07 08:24:53 51°13.599 2°56.095 -999 2.593581 27.394933 1.578409
2006-03-07 08:24:58 51°13.599 2°56.095 -999 2.595338 27.416154 1.578409
2006-03-07 08:25:03 51°13.599 2°56.095 -999 2.597198 27.436925 1.578409
2006-03-07 08:25:08 51°13.599 2°56.095 -999 2.599782 27.469406 1.578409
2006-03-07 08:25:13 51°13.599 2°56.096 -999 2.599782 27.469406 1.578409
2006-03-07 08:25:18 51°13.599 2°56.096 -999 2.601849 27.495896 1.578409
2006-03-07 08:25:23 51°13.6 2°56.096 -999 2.603605 27.517961 1.578409
2006-03-07 08:25:28 51°13.6 2°56.096 -999 2.604432 27.528396 1.578409
2006-03-07 08:25:32 51°13.6 2°56.096 -999 2.604432 27.528396 1.578409
2006-03-07 08:25:38 51°13.6 2°56.096 -999 2.603709 27.518333 1.578409
2006-03-07 08:25:43 51°13.6 2°56.096 -999 2.603709 27.518333 1.578409
2006-03-07 08:25:48 51°13.6 2°56.096 -999 2.602675 27.50467 1.578409
2006-03-07 08:25:53 51°13.6 2°56.096 -999 2.601952 27.493782 1.578409
2006-03-07 08:25:58 51°13.6 2°56.096 -999 2.601228 27.483725 1.578409
2006-03-07 08:26:03 51°13.6 2°56.096 -999 2.600815 27.478096 1.612118
2006-03-07 08:26:08 51°13.6 2°56.096 -999 2.601332 27.484097 1.612118
2006-03-07 08:26:13 51°13.6 2°56.096 -999 2.601332 27.484097 1.612118
2006-03-07 08:26:18 51°13.6 2°56.096 -999 2.601952 27.492126 1.612118
2006-03-07 08:26:23 51°13.6 2°56.096 -999 2.602159 27.494526 1.612118
2006-03-07 08:26:28 51°13.6 2°56.096 -999 2.602159 27.494526 1.612118
2006-03-07 08:26:33 51°13.6 2°56.096 -999 2.602882 27.502927 1.612118
2006-03-07 08:26:38 51°13.6 2°56.096 -999 2.603915 27.515759 1.612118
2006-03-07 08:26:43 51°13.6 2°56.095 -999 2.603915 27.515759 1.612118
2006-03-07 08:26:48 51°13.599 2°56.095 -999 2.604742 27.527021 1.612118
2006-03-07 08:26:53 51°13.599 2°56.095 -999 2.605259 27.533853 1.612118
2006-03-07 08:26:58 51°13.599 2°56.095 -999 2.605982 27.543086 1.612118
2006-03-07 08:27:03 51°13.6 2°56.095 -999 2.606499 27.54992 1.612118
2006-03-07 08:27:08 51°13.6 2°56.095 -999 2.606912 27.553892 1.612118
2006-03-07 08:27:13 51°13.6 2°56.095 -999 2.606912 27.553892 1.612118
2006-03-07 08:27:18 51°13.6 2°56.095 -999 2.607119 27.557124 1.612118
2006-03-07 08:27:23 51°13.6 2°56.095 -999 2.607326 27.559525 1.612118
2006-03-07 08:27:28 51°13.601 2°56.096 -999 2.607326 27.559525 1.612118
2006-03-07 08:27:33 51°13.601 2°56.096 -999 2.607429 27.560726 1.612118
2006-03-07 08:27:38 51°13.601 2°56.096 -999 2.607636 27.563128 1.612118
2006-03-07 08:27:43 51°13.601 2°56.096 -999 2.607636 27.563128 1.612118
2006-03-07 08:27:48 51°13.601 2°56.096 -999 2.607843 27.564699 1.612118
2006-03-07 08:27:53 51°13.602 2°56.096 -999 2.608153 27.568301 1.612118
2006-03-07 08:27:58 51°13.602 2°56.096 -999 2.608359 27.570702 1.645828
2006-03-07 08:28:03 51°13.602 2°56.096 -999 2.608669 27.575135 1.645828
2006-03-07 08:28:08 51°13.602 2°56.096 -999 2.608979 27.579569 1.645828
2006-03-07 08:28:13 51°13.602 2°56.096 -999 2.608979 27.579569 1.645828
2006-03-07 08:28:18 51°13.602 2°56.096 -999 2.609289 27.584003 1.645828
2006-03-07 08:28:23 51°13.602 2°56.096 -999 2.609393 27.585204 1.645828
2006-03-07 08:28:28 51°13.602 2°56.096 -999 2.609599 27.587606 1.645828
2006-03-07 08:28:33 51°13.602 2°56.096 -999 2.609909 27.591209 1.645828
2006-03-07 08:28:38 51°13.6 2°56.095 -999 2.610116 27.593611 1.645828
2006-03-07 08:28:43 51°13.6 2°56.094 -999 2.610116 27.593611 1.645828
2006-03-07 08:28:48 51°13.599 2°56.094 -999 2.610323 27.596844 1.645828
2006-03-07 08:28:52 51°13.599 2°56.094 -999 2.610426 27.598045 1.645828
2006-03-07 08:28:58 51°13.6 2°56.094 -999 2.61053 27.600078 1.645828
2006-03-07 08:29:03 51°13.6 2°56.094 -999 2.610736 27.603312 1.645828
2006-03-07 08:29:08 51°13.6 2°56.094 -999 2.611046 27.607748 1.645828
2006-03-07 08:29:12 51°13.6 2°56.094 -999 2.611046 27.607748 1.645828
2006-03-07 08:29:18 51°13.601 2°56.094 -999 2.611253 27.609318 1.645828
2006-03-07 08:29:23 51°13.601 2°56.094 -999 2.61146 27.61172 1.645828
2006-03-07 08:29:28 51°13.601 2°56.094 -999 2.611563 27.612921 1.645828
2006-03-07 08:29:32 51°13.601 2°56.095 -999 2.61177 27.616156 1.645828
2006-03-07 08:29:38 51°13.601 2°56.095 -999 2.611976 27.618559 1.645828
2006-03-07 08:29:43 51°13.601 2°56.095 -999 2.611976 27.618559 1.645828
2006-03-07 08:29:48 51°13.601 2°56.095 -999 2.612183 27.620961 1.645828
2006-03-07 08:29:53 51°13.601 2°56.095 -999 2.61239 27.622531 1.679537
2006-03-07 08:29:58 51°13.601 2°56.095 -999 2.6127 27.626135 1.679537
2006-03-07 08:30:03 51°13.601 2°56.095 -999 2.613113 27.63094 1.679537
2006-03-07 08:30:08 51°13.601 2°56.094 -999 2.613527 27.635745 1.679537
2006-03-07 08:30:13 51°13.601 2°56.095 -999 2.613527 27.635745 1.679537
2006-03-07 08:30:18 51°13.601 2°56.095 -999 2.613837 27.638516 1.645828
2006-03-07 08:30:23 51°13.601 2°56.095 -999 2.614147 27.64212 1.679537
2006-03-07 08:30:28 51°13.6 2°56.095 -999 2.608566 27.577259 1.679537
2006-03-07 08:30:33 51°13.6 2°56.094 -999 2.614663 27.64896 1.679537
2006-03-07 08:30:38 51°13.6 2°56.094 -999 2.614973 27.651731 1.679537
2006-03-07 08:30:43 51°13.6 2°56.095 -999 2.614973 27.651731 1.679537
2006-03-07 08:30:48 51°13.6 2°56.095 -999 2.615077 27.652932 1.679537
2006-03-07 08:30:53 51°13.6 2°56.095 -999 2.61549 27.658571 1.679537
2006-03-07 08:30:58 51°13.6 2°56.095 -999 2.615697 27.660974 1.679537
2006-03-07 08:31:03 51°13.6 2°56.095 -999 2.615593 27.66144 1.679537
2006-03-07 08:31:08 51°13.6 2°56.095 -999 2.6158 27.663843 1.679537
2006-03-07 08:31:12 51°13.6 2°56.095 -999 2.6158 27.663843 1.679537
2006-03-07 08:31:17 51°13.6 2°56.095 -999 2.616007 27.666246 1.679537
2006-03-07 08:31:23 51°13.6 2°56.095 -999 2.616317 27.669017 1.679537
2006-03-07 08:31:28 51°13.6 2°56.095 -999 2.616214 27.666982 1.679537
2006-03-07 08:31:33 51°13.6 2°56.095 -999 2.61642 27.668551 1.679537
2006-03-07 08:31:38 51°13.6 2°56.095 -999 2.616937 27.675392 1.679537
2006-03-07 08:31:43 51°13.6 2°56.095 -999 2.616937 27.675392 1.679537
2006-03-07 08:31:48 51°13.6 2°56.095 -999 2.616627 27.671788 1.713247
2006-03-07 08:31:53 51°13.6 2°56.095 -999 2.616937 27.674558 1.679537
2006-03-07 08:31:58 51°13.599 2°56.094 -999 2.616627 27.671788 1.713247
2006-03-07 08:32:03 51°13.599 2°56.094 -999 2.616214 27.665314 1.713247
2006-03-07 08:32:08 51°13.599 2°56.094 -999 2.6158 27.659675 1.713247
2006-03-07 08:32:13 51°13.599 2°56.094 -999 2.6158 27.659675 1.713247
2006-03-07 08:32:18 51°13.599 2°56.094 -999 2.615697 27.658473 1.713247
2006-03-07 08:32:23 51°13.599 2°56.094 -999 2.61549 27.656904 1.713247
2006-03-07 08:32:28 51°13.599 2°56.094 -999 2.615697 27.659307 1.713247
2006-03-07 08:32:33 51°13.6 2°56.094 -999 2.615697 27.660141 1.713247
2006-03-07 08:32:38 51°13.6 2°56.094 -999 2.6158 27.661342 1.713247
2006-03-07 08:32:43 51°13.6 2°56.094 -999 2.6158 27.661342 1.713247
2006-03-07 08:32:48 51°13.6 2°56.094 -999 2.61611 27.664946 1.713247
2006-03-07 08:32:53 51°13.6 2°56.094 -999 2.61642 27.667717 1.713247
2006-03-07 08:32:58 51°13.6 2°56.094 -999 2.616834 27.672523 1.713247
2006-03-07 08:33:03 51°13.6 2°56.094 -999 2.61704 27.674092 1.713247
2006-03-07 08:33:08 51°13.6 2°56.094 -999 2.617144 27.675293 1.713247
2006-03-07 08:33:13 51°13.6 2°56.094 -999 2.617144 27.675293 1.713247
2006-03-07 08:33:18 51°13.6 2°56.094 -999 2.617557 27.680933 1.713247
2006-03-07 08:33:23 51°13.6 2°56.094 -999 2.617867 27.684537 1.746956
2006-03-07 08:33:28 51°13.6 2°56.094 -999 2.618177 27.688142 1.746956
2006-03-07 08:33:32 51°13.6 2°56.094 -999 2.618384 27.689711 1.713247
2006-03-07 08:33:37 51°13.6 2°56.094 -999 2.618487 27.690912 1.746956
2006-03-07 08:33:43 51°13.6 2°56.094 -999 2.618487 27.690912 1.746956
2006-03-07 08:33:48 51°13.6 2°56.094 -999 2.618074 27.686106 1.746956
2006-03-07 08:33:53 51°13.6 2°56.094 -999 2.617764 27.682502 1.746956
2006-03-07 08:33:58 51°13.6 2°56.094 -999 2.617247 27.677328 1.746956
2006-03-07 08:34:03 51°13.6 2°56.095 -999 2.617144 27.676961 1.746956
2006-03-07 08:34:08 51°13.599 2°56.094 -999 2.616627 27.671788 1.746956
2006-03-07 08:34:13 51°13.599 2°56.094 -999 2.616627 27.671788 1.746956
2006-03-07 08:34:18 51°13.599 2°56.094 -999 2.616627 27.672622 1.746956
2006-03-07 08:34:23 51°13.599 2°56.094 -999 2.616834 27.674191 1.746956
2006-03-07 08:34:28 51°13.599 2°56.094 -999 2.616627 27.669286 1.746956
2006-03-07 08:34:33 51°13.599 2°56.094 -999 2.61642 27.666049 1.746956
2006-03-07 08:34:38 51°13.599 2°56.094 -999 2.61673 27.667986 1.746956
2006-03-07 08:34:43 51°13.599 2°56.095 -999 2.61673 27.667986 1.746956
2006-03-07 08:34:48 51°13.599 2°56.095 -999 2.61673 27.667152 1.746956
2006-03-07 08:34:52 51°13.599 2°56.095 -999 2.616834 27.665853 1.746956
2006-03-07 08:34:58 51°13.599 2°56.095 -999 2.616627 27.662617 1.780665
2006-03-07 08:35:03 51°13.599 2°56.095 -999 2.617144 27.668623 1.746956
2006-03-07 08:35:08 51°13.599 2°56.095 -999 2.617454 27.67306 1.780665
2006-03-07 08:35:12 51°13.599 2°56.095 -999 2.617454 27.67306 1.780665
2006-03-07 08:35:18 51°13.599 2°56.095 -999 2.61797 27.679066 1.780665
2006-03-07 08:35:23 51°13.599 2°56.095 -999 2.618074 27.681935 1.780665
2006-03-07 08:35:28 51°13.599 2°56.095 -999 2.617764 27.679999 1.780665
2006-03-07 08:35:32 51°13.598 2°56.095 -999 2.618384 27.687208 1.780665
2006-03-07 08:35:38 51°13.598 2°56.095 -999 2.618177 27.683971 1.780665
2006-03-07 08:35:43 51°13.598 2°56.095 -999 2.618177 27.683971 1.780665
2006-03-07 08:35:48 51°13.598 2°56.095 -999 2.618487 27.687575 1.780665
2006-03-07 08:35:52 51°13.598 2°56.095 -999 2.618694 27.690812 1.780665
2006-03-07 08:35:57 51°13.598 2°56.095 -999 2.618901 27.694049 1.780665
2006-03-07 08:36:03 51°13.598 2°56.095 -999 2.618901 27.694049 1.780665
2006-03-07 08:36:08 51°13.598 2°56.095 -999 2.618797 27.692848 1.780665
2006-03-07 08:36:13 51°13.598 2°56.095 -999 2.618797 27.692848 1.780665
2006-03-07 08:36:18 51°13.598 2°56.095 -999 2.618797 27.692013 1.780665
2006-03-07 08:36:23 51°13.598 2°56.095 -999 2.618797 27.693682 1.780665
2006-03-07 08:36:27 51°13.598 2°56.095 -999 2.618797 27.694517 1.780665
2006-03-07 08:36:33 51°13.598 2°56.095 -999 2.618694 27.692481 1.780665
2006-03-07 08:36:38 51°13.598 2°56.095 -999 2.61859 27.691279 1.780665
2006-03-07 08:36:43 51°13.598 2°56.095 -999 2.61859 27.691279 1.780665
2006-03-07 08:36:48 51°13.598 2°56.095 -999 2.618384 27.688042 1.780665
2006-03-07 08:36:53 51°13.599 2°56.095 -999 2.618384 27.688042 1.780665
2006-03-07 08:36:58 51°13.599 2°56.095 -999 2.61828 27.68684 1.814375
2006-03-07 08:37:03 51°13.599 2°56.095 -999 2.618177 27.684805 1.814375
2006-03-07 08:37:08 51°13.599 2°56.096 -999 2.61828 27.686006 1.814375
2006-03-07 08:37:13 51°13.599 2°56.096 -999 2.61828 27.686006 1.814375
2006-03-07 08:37:18 51°13.599 2°56.096 -999 2.61797 27.683236 1.814375
2006-03-07 08:37:23 51°13.599 2°56.096 -999 2.618074 27.685272 1.814375
2006-03-07 08:37:28 51°13.599 2°56.096 -999 2.618487 27.690078 1.814375
2006-03-07 08:37:33 51°13.599 2°56.096 -999 2.61859 27.691279 1.814375
2006-03-07 08:37:38 51°13.599 2°56.096 -999 2.618694 27.692481 1.814375
2006-03-07 08:37:43 51°13.599 2°56.096 -999 2.618694 27.692481 1.814375
2006-03-07 08:37:48 51°13.599 2°56.096 -999 2.619107 27.696452 1.814375
2006-03-07 08:37:53 51°13.599 2°56.096 -999 2.618901 27.694884 1.814375
2006-03-07 08:37:58 51°13.599 2°56.096 -999 2.619004 27.696085 1.814375
2006-03-07 08:38:03 51°13.6 2°56.096 -999 2.619004 27.695251 1.814375
2006-03-07 08:38:08 51°13.6 2°56.096 -999 2.619107 27.696452 1.814375
2006-03-07 08:38:13 51°13.6 2°56.096 -999 2.619107 27.696452 1.814375
2006-03-07 08:38:18 51°13.6 2°56.095 -999 2.619521 27.701258 1.814375
2006-03-07 08:38:23 51°13.6 2°56.095 -999 2.619624 27.703294 1.814375
2006-03-07 08:38:28 51°13.6 2°56.095 -999 2.619727 27.703661 1.814375
2006-03-07 08:38:33 51°13.6 2°56.095 -999 2.619831 27.704028 1.814375
2006-03-07 08:38:38 51°13.6 2°56.095 -999 2.620141 27.707632 1.814375
2006-03-07 08:38:43 51°13.6 2°56.095 -999 2.620141 27.707632 1.814375
2006-03-07 08:38:48 51°13.6 2°56.095 -999 2.620554 27.712439 1.814375
2006-03-07 08:38:53 51°13.6 2°56.095 -999 2.620864 27.717714 1.814375
2006-03-07 08:38:58 51°13.6 2°56.095 -999 2.621071 27.720117 1.814375
2006-03-07 08:39:03 51°13.6 2°56.095 -999 2.621174 27.722154 1.814375
2006-03-07 08:39:08 51°13.6 2°56.095 -999 2.621794 27.729364 1.848084
2006-03-07 08:39:12 51°13.6 2°56.095 -999 2.621794 27.729364 1.848084
2006-03-07 08:39:18 51°13.6 2°56.095 -999 2.61394 27.638052 1.848084
2006-03-07 08:39:23 51°13.6 2°56.095 -999 2.621691 27.728163 1.848084
2006-03-07 08:39:28 51°13.601 2°56.095 -999 2.622518 27.738612 1.848084
2006-03-07 08:39:33 51°13.601 2°56.095 -999 2.622828 27.742218 1.848084
2006-03-07 08:39:38 51°13.601 2°56.095 -999 2.622931 27.74342 1.848084
2006-03-07 08:39:43 51°13.601 2°56.095 -999 2.622931 27.74342 1.848084
2006-03-07 08:39:48 51°13.601 2°56.095 -999 2.623448 27.748593 1.848084
2006-03-07 08:39:52 51°13.6 2°56.095 -999 2.623241 27.746189 1.848084
2006-03-07 08:39:58 51°13.6 2°56.095 -999 2.623344 27.746555 1.848084
2006-03-07 08:40:03 51°13.6 2°56.095 -999 2.623241 27.744517 1.848084
2006-03-07 08:40:08 51°13.6 2°56.095 -999 2.623034 27.741278 1.848084
2006-03-07 08:40:13 51°13.6 2°56.095 -999 2.623034 27.741278 1.848084
2006-03-07 08:40:18 51°13.6 2°56.095 -999 2.622311 27.73203 1.848084
2006-03-07 08:40:23 51°13.6 2°56.095 -999 2.621691 27.723985 1.848084
2006-03-07 08:40:28 51°13.6 2°56.095 -999 2.621071 27.715941 1.848084
2006-03-07 08:40:33 51°13.6 2°56.094 -999 2.621174 27.716307 1.848084
2006-03-07 08:40:38 51°13.6 2°56.094 -999 2.621277 27.715839 1.848084
2006-03-07 08:40:43 51°13.6 2°56.094 -999 2.621277 27.715839 1.848084
2006-03-07 08:40:48 51°13.6 2°56.094 -999 2.621691 27.719809 1.881794
2006-03-07 08:40:53 51°13.6 2°56.094 -999 2.622104 27.724615 1.881794
2006-03-07 08:40:58 51°13.6 2°56.094 -999 2.622621 27.732293 1.881794
2006-03-07 08:41:03 51°13.6 2°56.093 -999 2.623034 27.737099 1.881794
2006-03-07 08:41:08 51°13.6 2°56.093 -999 2.623551 27.743942 1.881794
2006-03-07 08:41:13 51°13.6 2°56.093 -999 2.623551 27.743942 1.881794
2006-03-07 08:41:18 51°13.6 2°56.093 -999 2.623758 27.747181 1.881794
2006-03-07 08:41:23 51°13.6 2°56.093 -999 2.624171 27.751988 1.881794
2006-03-07 08:41:28 51°13.6 2°56.093 -999 2.624378 27.754391 1.881794
2006-03-07 08:41:32 51°13.6 2°56.093 -999 2.625411 27.765572 1.881794
2006-03-07 08:41:38 51°13.6 2°56.093 -999 2.626135 27.773984 1.881794
2006-03-07 08:41:43 51°13.6 2°56.093 -999 2.626135 27.773984 1.881794
2006-03-07 08:41:48 51°13.6 2°56.093 -999 2.626962 27.78611 1.881794
2006-03-07 08:41:53 51°13.6 2°56.093 -999 2.627582 27.794159 1.881794
2006-03-07 08:41:58 51°13.6 2°56.093 -999 2.628615 27.807017 1.881794
2006-03-07 08:42:03 51°13.6 2°56.093 -999 2.629132 27.813866 1.881794
2006-03-07 08:42:08 51°13.6 2°56.093 -999 2.629235 27.815906 1.881794
2006-03-07 08:42:13 51°13.6 2°56.093 -999 2.629235 27.815906 1.881794
2006-03-07 08:42:18 51°13.6 2°56.093 -999 2.629855 27.823119 1.881794
2006-03-07 08:42:23 51°13.6 2°56.093 -999 2.630166 27.828404 1.881794
2006-03-07 08:42:28 51°13.6 2°56.094 -999 2.630579 27.834052 1.881794
2006-03-07 08:42:33 51°13.6 2°56.094 -999 2.630682 27.834415 1.881794
2006-03-07 08:42:38 51°13.6 2°56.094 -999 2.630786 27.834779 1.881794
2006-03-07 08:42:43 51°13.599 2°56.094 -999 2.630786 27.834779 1.881794
2006-03-07 08:42:48 51°13.599 2°56.094 -999 2.631509 27.843195 1.881794
2006-03-07 08:42:53 51°13.599 2°56.094 -999 2.631509 27.844034 1.881794
2006-03-07 08:42:58 51°13.599 2°56.094 -999 2.631612 27.845237 1.881794
2006-03-07 08:43:03 51°13.599 2°56.094 -999 2.632026 27.850047 1.881794
2006-03-07 08:43:08 51°13.599 2°56.094 -999 2.631819 27.847642 1.881794
2006-03-07 08:43:13 51°13.599 2°56.094 -999 2.631819 27.847642 1.881794
2006-03-07 08:43:18 51°13.599 2°56.094 -999 2.632439 27.856536 1.881794
2006-03-07 08:43:23 51°13.598 2°56.094 -999 2.632853 27.861346 1.881794
2006-03-07 08:43:28 51°13.598 2°56.094 -999 2.633473 27.869402 1.881794
2006-03-07 08:43:33 51°13.598 2°56.094 -999 2.633886 27.875052 1.881794
2006-03-07 08:43:38 51°13.598 2°56.094 -999 2.6343 27.880704 1.915503
2006-03-07 08:43:43 51°13.598 2°56.094 -999 2.6343 27.880704 1.915503
2006-03-07 08:43:48 51°13.598 2°56.094 -999 2.634713 27.886355 1.881794
2006-03-07 08:43:53 51°13.598 2°56.094 -999 2.63523 27.893211 1.915503
2006-03-07 08:43:58 51°13.598 2°56.094 -999 2.635333 27.894413 1.915503
2006-03-07 08:44:03 51°13.598 2°56.094 -999 2.635953 27.902472 1.915503
2006-03-07 08:44:08 51°13.598 2°56.094 -999 2.636263 27.906081 1.915503
2006-03-07 08:44:13 51°13.598 2°56.094 -999 2.636263 27.906081 1.915503
2006-03-07 08:44:18 51°13.598 2°56.094 -999 2.636573 27.90969 1.915503
2006-03-07 08:44:23 51°13.598 2°56.094 -999 2.636883 27.9133 1.915503
2006-03-07 08:44:28 51°13.598 2°56.094 -999 2.637193 27.916909 1.915503
2006-03-07 08:44:33 51°13.598 2°56.094 -999 2.6374 27.920157 1.915503
2006-03-07 08:44:38 51°13.598 2°56.094 -999 2.637814 27.924969 1.915503
2006-03-07 08:44:43 51°13.598 2°56.094 -999 2.637814 27.924969 1.915503
2006-03-07 08:44:48 51°13.598 2°56.094 -999 2.638124 27.927737 1.915503
2006-03-07 08:44:53 51°13.598 2°56.094 -999 2.63833 27.930985 1.915503
2006-03-07 08:44:58 51°13.598 2°56.094 -999 2.638537 27.933391 1.915503
2006-03-07 08:45:03 51°13.598 2°56.094 -999 2.63864 27.935437 1.915503
2006-03-07 08:45:08 51°13.598 2°56.094 -999 2.63864 27.935437 1.915503
2006-03-07 08:45:13 51°13.598 2°56.094 -999 2.63864 27.935437 1.915503
2006-03-07 08:45:18 51°13.598 2°56.094 -999 2.63895 27.939047 1.915503
2006-03-07 08:45:23 51°13.598 2°56.094 -999 2.639054 27.939407 1.915503
2006-03-07 08:45:28 51°13.598 2°56.094 -999 2.639054 27.939407 1.915503
2006-03-07 08:45:33 51°13.598 2°56.094 -999 2.63957 27.946266 1.915503
2006-03-07 08:45:38 51°13.598 2°56.094 -999 2.63957 27.946266 1.915503
2006-03-07 08:45:43 51°13.598 2°56.094 -999 2.63957 27.946266 1.915503
2006-03-07 08:45:48 51°13.598 2°56.094 -999 2.639571 27.947109 1.915503
2006-03-07 08:45:53 51°13.598 2°56.094 -999 2.639984 27.952765 1.915503
2006-03-07 08:45:58 51°13.598 2°56.094 -999 2.640191 27.955172 1.915503
2006-03-07 08:46:03 51°13.599 2°56.094 -999 2.640294 27.955532 1.915503
2006-03-07 08:46:08 51°13.599 2°56.094 -999 2.640707 27.960346 1.915503
2006-03-07 08:46:12 51°13.599 2°56.094 -999 2.640707 27.960346 1.915503
2006-03-07 08:46:18 51°13.599 2°56.094 -999 2.640914 27.96191 1.915503
2006-03-07 08:46:23 51°13.599 2°56.094 -999 2.641327 27.966723 1.915503
2006-03-07 08:46:28 51°13.599 2°56.094 -999 2.641121 27.96516 1.915503
2006-03-07 08:46:33 51°13.599 2°56.094 -999 2.641534 27.96913 1.915503
2006-03-07 08:46:38 51°13.599 2°56.094 -999 2.641741 27.969851 1.915503
2006-03-07 08:46:43 51°13.599 2°56.094 -999 2.641741 27.969851 1.915503
2006-03-07 08:46:48 51°13.599 2°56.094 -999 2.642051 27.973461 1.915503
2006-03-07 08:46:53 51°13.599 2°56.094 -999 2.641844 27.971054 1.915503
2006-03-07 08:46:58 51°13.599 2°56.094 -999 2.642361 27.977071 1.915503
2006-03-07 08:47:03 51°13.599 2°56.094 -999 2.642361 27.977914 1.915503
2006-03-07 08:47:08 51°13.599 2°56.094 -999 2.642361 27.978758 1.915503
2006-03-07 08:47:13 51°13.599 2°56.094 -999 2.642361 27.978758 1.915503
2006-03-07 08:47:18 51°13.599 2°56.094 -999 2.642671 27.982368 1.915503
2006-03-07 08:47:23 51°13.599 2°56.094 -999 2.642671 27.982368 1.915503
2006-03-07 08:47:28 51°13.599 2°56.094 -999 2.642774 27.983572 1.949212
2006-03-07 08:47:33 51°13.599 2°56.094 -999 2.642774 27.983572 1.949212
2006-03-07 08:47:38 51°13.599 2°56.094 -999 2.642878 27.984775 1.915503
2006-03-07 08:47:43 51°13.599 2°56.094 -999 2.642878 27.984775 1.915503
2006-03-07 08:47:48 51°13.599 2°56.094 -999 2.642671 27.982368 1.949212
2006-03-07 08:47:53 51°13.599 2°56.094 -999 2.642878 27.983088 1.949212
2006-03-07 08:47:58 51°13.599 2°56.094 -999 2.642774 27.980198 1.915503
2006-03-07 08:48:03 51°13.599 2°56.094 -999 2.642981 27.981761 1.915503
2006-03-07 08:48:08 51°13.599 2°56.094 -999 2.642981 27.981761 1.915503
2006-03-07 08:48:13 51°13.599 2°56.094 -999 2.642981 27.981761 1.915503
2006-03-07 08:48:18 51°13.599 2°56.094 -999 2.643084 27.982964 1.949212
2006-03-07 08:48:23 51°13.599 2°56.094 -999 2.642981 27.982604 1.915503
2006-03-07 08:48:28 51°13.599 2°56.094 -999 2.642878 27.981401 1.915503
2006-03-07 08:48:33 51°13.599 2°56.094 -999 2.642878 27.981401 1.949212
2006-03-07 08:48:38 51°13.599 2°56.094 -999 2.642878 27.981401 1.949212
2006-03-07 08:48:43 51°13.599 2°56.094 -999 2.642878 27.981401 1.949212
2006-03-07 08:48:48 51°13.599 2°56.094 -999 2.642981 27.981761 1.949212
2006-03-07 08:48:53 51°13.599 2°56.094 -999 2.642981 27.980917 1.949212
2006-03-07 08:48:58 51°13.599 2°56.095 -999 2.643084 27.982964 1.949212
2006-03-07 08:49:03 51°13.599 2°56.095 -999 2.643498 27.987778 1.949212
2006-03-07 08:49:08 51°13.598 2°56.095 -999 2.643601 27.988137 1.949212
2006-03-07 08:49:12 51°13.598 2°56.095 -999 2.643601 27.988137 1.949212
2006-03-07 08:49:18 51°13.598 2°56.095 -999 2.643705 27.989341 1.949212
2006-03-07 08:49:23 51°13.598 2°56.095 -999 2.643808 27.9897 1.949212
2006-03-07 08:49:28 51°13.598 2°56.095 -999 2.644015 27.992107 1.949212
2006-03-07 08:49:33 51°13.598 2°56.095 -999 2.644118 27.99331 1.949212
2006-03-07 08:49:38 51°13.598 2°56.095 -999 2.644015 27.992107 1.949212
2006-03-07 08:49:43 51°13.598 2°56.095 -999 2.644015 27.992107 1.949212
2006-03-07 08:49:48 51°13.598 2°56.095 -999 2.643911 27.991747 1.949212
2006-03-07 08:49:53 51°13.597 2°56.095 -999 2.644325 27.996561 1.949212
2006-03-07 08:49:58 51°13.597 2°56.095 -999 2.644325 27.995717 1.949212
2006-03-07 08:50:03 51°13.597 2°56.095 -999 2.644325 27.996561 1.949212
2006-03-07 08:50:08 51°13.597 2°56.095 -999 2.644531 27.998968 1.949212
2006-03-07 08:50:13 51°13.597 2°56.095 -999 2.644531 27.998968 1.949212
2006-03-07 08:50:18 51°13.597 2°56.095 -999 2.644531 27.999812 1.949212
2006-03-07 08:50:23 51°13.597 2°56.095 -999 2.644635 28.001015 1.949212
2006-03-07 08:50:28 51°13.598 2°56.095 -999 2.644635 28.001015 1.949212
2006-03-07 08:50:32 51°13.598 2°56.095 -999 2.644841 28.002578 1.949212
2006-03-07 08:50:38 51°13.597 2°56.094 -999 2.644945 28.003781 1.949212
2006-03-07 08:50:43 51°13.597 2°56.094 -999 2.644945 28.003781 1.949212
2006-03-07 08:50:48 51°13.597 2°56.094 -999 2.645151 28.006188 1.949212
2006-03-07 08:50:52 51°13.597 2°56.094 -999 2.645358 28.007751 1.949212
2006-03-07 08:50:58 51°13.597 2°56.094 -999 2.645668 28.011361 1.949212
2006-03-07 08:51:03 51°13.597 2°56.094 -999 2.646082 28.01702 1.949212
2006-03-07 08:51:08 51°13.597 2°56.094 -999 2.646288 28.019427 1.949212
2006-03-07 08:51:12 51°13.597 2°56.094 -999 2.646288 28.019427 1.949212
2006-03-07 08:51:18 51°13.597 2°56.094 -999 2.646598 28.023882 1.949212
2006-03-07 08:51:23 51°13.597 2°56.094 -999 2.646702 28.025085 1.949212
2006-03-07 08:51:28 51°13.597 2°56.094 -999 2.646805 28.027134 1.949212
2006-03-07 08:51:33 51°13.597 2°56.094 -999 2.646908 28.028337 1.982922
2006-03-07 08:51:38 51°13.597 2°56.094 -999 2.647012 28.028696 1.982922
2006-03-07 08:51:43 51°13.597 2°56.094 -999 2.647012 28.028696 1.982922
2006-03-07 08:51:48 51°13.597 2°56.094 -999 2.647115 28.0299 1.982922
2006-03-07 08:51:52 51°13.597 2°56.094 -999 2.647012 28.029541 1.949212
2006-03-07 08:51:58 51°13.597 2°56.094 -999 2.645565 28.011846 1.982922
2006-03-07 08:52:03 51°13.597 2°56.093 -999 2.646908 28.027493 1.982922
2006-03-07 08:52:08 51°13.597 2°56.093 -999 2.647115 28.0299 1.982922
2006-03-07 08:52:13 51°13.597 2°56.094 -999 2.647115 28.0299 1.982922
2006-03-07 08:52:18 51°13.597 2°56.093 -999 2.647322 28.032307 1.982922
2006-03-07 08:52:23 51°13.597 2°56.093 -999 2.647632 28.037608 1.982922
2006-03-07 08:52:28 51°13.597 2°56.093 -999 2.647839 28.041706 1.982922
2006-03-07 08:52:33 51°13.597 2°56.093 -999 2.648045 28.044959 1.982922
2006-03-07 08:52:38 51°13.598 2°56.093 -999 2.648355 28.048571 1.982922
2006-03-07 08:52:43 51°13.598 2°56.093 -999 2.648355 28.048571 1.982922
2006-03-07 08:52:48 51°13.598 2°56.094 -999 2.648459 28.048929 1.982922
2006-03-07 08:52:53 51°13.598 2°56.094 -999 2.648976 28.054948 1.982922
2006-03-07 08:52:58 51°13.598 2°56.094 -999 2.649492 28.060122 1.982922
2006-03-07 08:53:03 51°13.598 2°56.094 -999 2.649802 28.064579 1.982922
2006-03-07 08:53:07 51°13.598 2°56.094 -999 2.650216 28.071088 1.982922
2006-03-07 08:53:13 51°13.598 2°56.094 -999 2.650216 28.071088 1.982922
2006-03-07 08:53:18 51°13.598 2°56.093 -999 2.650526 28.0747 1.982922
2006-03-07 08:53:23 51°13.598 2°56.093 -999 2.650939 28.079516 1.982922
2006-03-07 08:53:28 51°13.598 2°56.094 -999 2.651043 28.081567 2.016631
2006-03-07 08:53:33 51°13.598 2°56.093 -999 2.651249 28.083975 2.016631
2006-03-07 08:53:38 51°13.598 2°56.094 -999 2.651456 28.085536 1.982922
2006-03-07 08:53:43 51°13.598 2°56.094 -999 2.651456 28.085536 1.982922
2006-03-07 08:53:48 51°13.598 2°56.094 -999 2.651663 28.087098 1.982922
2006-03-07 08:53:52 51°13.598 2°56.094 -999 2.651869 28.090353 2.016631
2006-03-07 08:53:58 51°13.598 2°56.094 -999 2.651973 28.091557 2.016631
2006-03-07 08:54:03 51°13.598 2°56.094 -999 2.65218 28.093965 2.016631
2006-03-07 08:54:08 51°13.598 2°56.094 -999 2.652386 28.095527 2.016631
2006-03-07 08:54:12 51°13.598 2°56.094 -999 2.652386 28.095527 2.016631
2006-03-07 08:54:18 51°13.598 2°56.094 -999 2.652696 28.097445 2.016631
2006-03-07 08:54:23 51°13.598 2°56.094 -999 2.6528 28.097802 2.016631
2006-03-07 08:54:28 51°13.598 2°56.094 -999 2.65311 28.100567 2.016631
2006-03-07 08:54:33 51°13.598 2°56.094 -999 2.652903 28.099006 2.016631
2006-03-07 08:54:38 51°13.598 2°56.094 -999 2.653523 28.10623 2.016631
2006-03-07 08:54:43 51°13.598 2°56.094 -999 2.653523 28.10623 2.016631
2006-03-07 08:54:48 51°13.597 2°56.094 -999 2.653626 28.108282 2.016631
2006-03-07 08:54:53 51°13.597 2°56.094 -999 2.65373 28.108638 2.016631
2006-03-07 08:54:58 51°13.597 2°56.094 -999 2.653833 28.109843 2.016631
2006-03-07 08:55:03 51°13.597 2°56.094 -999 2.65404 28.113098 2.016631
2006-03-07 08:55:08 51°13.597 2°56.094 -999 2.654143 28.115998 2.016631
2006-03-07 08:55:12 51°13.597 2°56.094 -999 2.654143 28.115998 2.016631
2006-03-07 08:55:18 51°13.597 2°56.094 -999 2.654143 28.11515 2.016631
2006-03-07 08:55:23 51°13.597 2°56.094 -999 2.654247 28.117202 2.016631
2006-03-07 08:55:28 51°13.597 2°56.094 -999 2.65435 28.119254 2.016631
2006-03-07 08:55:32 51°13.597 2°56.094 -999 2.65435 28.119254 2.016631
2006-03-07 08:55:38 51°13.597 2°56.094 -999 2.654557 28.121662 2.016631
2006-03-07 08:55:43 51°13.597 2°56.094 -999 2.654557 28.121662 2.016631
2006-03-07 08:55:48 51°13.596 2°56.094 -999 2.654557 28.121662 2.050341
2006-03-07 08:55:53 51°13.596 2°56.094 -999 2.654453 28.120458 2.016631
2006-03-07 08:55:58 51°13.596 2°56.094 -999 2.65466 28.122019 2.016631
2006-03-07 08:56:03 51°13.596 2°56.094 -999 2.654867 28.123579 2.016631
2006-03-07 08:56:08 51°13.596 2°56.094 -999 2.65497 28.124784 2.016631
2006-03-07 08:56:13 51°13.596 2°56.094 -999 2.65497 28.124784 2.016631
2006-03-07 08:56:18 51°13.596 2°56.094 -999 2.65497 28.125632 2.050341
2006-03-07 08:56:23 51°13.597 2°56.095 -999 2.655073 28.126836 2.016631
2006-03-07 08:56:28 51°13.597 2°56.095 -999 2.655073 28.126836 2.050341
2006-03-07 08:56:33 51°13.597 2°56.095 -999 2.655073 28.125988 2.016631
2006-03-07 08:56:38 51°13.597 2°56.095 -999 2.655177 28.127192 2.050341
2006-03-07 08:56:43 51°13.597 2°56.095 -999 2.655177 28.127192 2.050341
2006-03-07 08:56:48 51°13.597 2°56.095 -999 2.65528 28.128396 2.050341
2006-03-07 08:56:52 51°13.597 2°56.095 -999 2.655384 28.128753 2.050341
2006-03-07 08:56:58 51°13.597 2°56.095 -999 2.655487 28.129957 2.050341
2006-03-07 08:57:03 51°13.597 2°56.095 -999 2.655487 28.130805 2.050341
2006-03-07 08:57:08 51°13.597 2°56.095 -999 2.655487 28.131653 2.050341
2006-03-07 08:57:13 51°13.597 2°56.095 -999 2.655487 28.131653 2.050341
2006-03-07 08:57:18 51°13.597 2°56.095 -999 2.655487 28.130805 2.050341
2006-03-07 08:57:23 51°13.597 2°56.095 -999 2.655694 28.131517 2.050341
2006-03-07 08:57:28 51°13.597 2°56.095 -999 2.655694 28.131517 2.050341
2006-03-07 08:57:33 51°13.597 2°56.095 -999 2.655694 28.132366 2.050341
2006-03-07 08:57:38 51°13.597 2°56.095 -999 2.655694 28.132366 2.050341
2006-03-07 08:57:43 51°13.597 2°56.095 -999 2.655694 28.132366 2.050341
2006-03-07 08:57:48 51°13.597 2°56.095 -999 2.655797 28.13357 2.050341
2006-03-07 08:57:52 51°13.597 2°56.095 -999 2.655797 28.134418 2.050341
2006-03-07 08:57:58 51°13.597 2°56.095 -999 2.6559 28.135622 2.050341
2006-03-07 08:58:03 51°13.597 2°56.095 -999 2.656004 28.136827 2.050341
2006-03-07 08:58:08 51°13.597 2°56.095 -999 2.656107 28.138031 2.050341
2006-03-07 08:58:13 51°13.597 2°56.095 -999 2.656107 28.138031 2.050341
2006-03-07 08:58:19 51°13.597 2°56.095 -999 2.65621 28.139235 2.050341
2006-03-07 08:58:23 51°13.597 2°56.095 -999 2.656314 28.14044 2.050341
2006-03-07 08:58:28 51°13.598 2°56.095 -999 2.656314 28.14044 2.050341
2006-03-07 08:58:33 51°13.598 2°56.095 -999 2.656314 28.141288 2.050341
2006-03-07 08:58:38 51°13.598 2°56.095 -999 2.656417 28.142492 2.050341
2006-03-07 08:58:43 51°13.598 2°56.095 -999 2.656417 28.142492 2.050341
2006-03-07 08:58:48 51°13.598 2°56.095 -999 2.65652 28.144545 2.050341
2006-03-07 08:58:53 51°13.598 2°56.095 -999 2.656417 28.143341 2.050341
2006-03-07 08:58:58 51°13.598 2°56.095 -999 2.65652 28.142 2.050341
2006-03-07 08:59:03 51°13.598 2°56.095 -999 2.656727 28.14356 2.050341
2006-03-07 08:59:08 51°13.598 2°56.095 -999 2.65683 28.145613 2.050341
2006-03-07 08:59:13 51°13.598 2°56.095 -999 2.65683 28.145613 2.050341
2006-03-07 08:59:18 51°13.598 2°56.095 -999 2.656934 28.148514 2.050341
2006-03-07 08:59:23 51°13.598 2°56.095 -999 2.656934 28.150212 2.050341
2006-03-07 08:59:28 51°13.598 2°56.095 -999 2.656934 28.150212 2.050341
2006-03-07 08:59:33 51°13.598 2°56.095 -999 2.656831 28.149007 2.050341
2006-03-07 08:59:38 51°13.598 2°56.095 -999 2.657037 28.150567 2.050341
2006-03-07 08:59:43 51°13.598 2°56.095 -999 2.657037 28.150567 2.050341
2006-03-07 08:59:48 51°13.598 2°56.095 -999 2.657141 28.151772 2.050341
2006-03-07 08:59:53 51°13.598 2°56.095 -999 2.657141 28.151772 2.050341
2006-03-07 08:59:58 51°13.598 2°56.095 -999 2.657451 28.156234 2.050341
2006-03-07 09:00:03 51°13.598 2°56.095 -999 2.657657 28.157794 2.050341
2006-03-07 09:00:08 51°13.598 2°56.095 -999 2.657864 28.160203 2.050341
2006-03-07 09:00:13 51°13.598 2°56.095 -999 2.657864 28.160203 2.050341
2006-03-07 09:00:18 51°13.598 2°56.095 -999 2.658071 28.162612 2.050341
2006-03-07 09:00:23 51°13.597 2°56.095 -999 2.658381 28.166226 2.050341
2006-03-07 09:00:28 51°13.597 2°56.095 -999 2.658691 28.170689 2.08405
2006-03-07 09:00:33 51°13.597 2°56.095 -999 2.658794 28.171893 2.08405
2006-03-07 09:00:38 51°13.597 2°56.095 -999 2.658794 28.171893 2.050341
2006-03-07 09:00:43 51°13.597 2°56.095 -999 2.658794 28.171893 2.050341
2006-03-07 09:00:48 51°13.597 2°56.095 -999 2.659001 28.175152 2.08405
2006-03-07 09:00:53 51°13.597 2°56.095 -999 2.659104 28.175507 2.050341
2006-03-07 09:00:58 51°13.597 2°56.095 -999 2.659311 28.177067 2.08405
2006-03-07 09:01:03 51°13.597 2°56.095 -999 2.659414 28.175723 2.08405
2006-03-07 09:01:08 51°13.597 2°56.095 -999 2.659414 28.173175 2.050341
2006-03-07 09:01:12 51°13.597 2°56.095 -999 2.659414 28.173175 2.050341
2006-03-07 09:01:18 51°13.597 2°56.095 -999 2.659518 28.172681 2.08405
2006-03-07 09:01:23 51°13.597 2°56.095 -999 2.659621 28.172187 2.08405
2006-03-07 09:01:28 51°13.597 2°56.095 -999 2.659828 28.172897 2.050341
2006-03-07 09:01:33 51°13.597 2°56.095 -999 2.659931 28.173253 2.08405
2006-03-07 09:01:38 51°13.597 2°56.095 -999 2.660241 28.177714 2.08405
2006-03-07 09:01:43 51°13.597 2°56.094 -999 2.660241 28.177714 2.08405
2006-03-07 09:01:48 51°13.597 2°56.094 -999 2.660138 28.17651 2.08405
2006-03-07 09:01:53 51°13.597 2°56.094 -999 2.659724 28.172542 2.050341
2006-03-07 09:01:58 51°13.597 2°56.093 -999 2.659311 28.168574 2.08405
2006-03-07 09:02:03 51°13.597 2°56.094 -999 2.659104 28.167864 2.050341
2006-03-07 09:02:08 51°13.597 2°56.094 -999 2.658898 28.166304 2.050341
2006-03-07 09:02:13 51°13.597 2°56.094 -999 2.658898 28.166304 2.050341
2006-03-07 09:02:18 51°13.597 2°56.094 -999 2.658691 28.163896 2.08405
2006-03-07 09:02:23 51°13.597 2°56.094 -999 2.658691 28.164745 2.050341
2006-03-07 09:02:28 51°13.597 2°56.094 -999 2.658794 28.166798 2.050341
2006-03-07 09:02:33 51°13.597 2°56.094 -999 2.658794 28.167647 2.08405
2006-03-07 09:02:38 51°13.597 2°56.094 -999 2.659001 28.170905 2.08405
2006-03-07 09:02:43 51°13.597 2°56.094 -999 2.659001 28.170905 2.08405
2006-03-07 09:02:48 51°13.597 2°56.094 -999 2.659104 28.17211 2.08405
2006-03-07 09:02:52 51°13.597 2°56.094 -999 2.659104 28.172959 2.08405
2006-03-07 09:02:58 51°13.597 2°56.094 -999 2.659104 28.17211 2.050341
2006-03-07 09:03:03 51°13.597 2°56.094 -999 2.659001 28.170905 2.08405
2006-03-07 09:03:08 51°13.597 2°56.094 -999 2.659001 28.170056 2.050341
2006-03-07 09:03:12 51°13.597 2°56.094 -999 2.659001 28.170056 2.050341
2006-03-07 09:03:18 51°13.597 2°56.094 -999 2.658898 28.168852 2.08405
2006-03-07 09:03:23 51°13.597 2°56.094 -999 2.658794 28.166798 2.08405
2006-03-07 09:03:28 51°13.597 2°56.094 -999 2.658794 28.166798 2.08405
2006-03-07 09:03:33 51°13.597 2°56.094 -999 2.658691 28.164745 2.08405
2006-03-07 09:03:38 51°13.597 2°56.094 -999 2.658691 28.163896 2.08405
2006-03-07 09:03:43 51°13.597 2°56.094 -999 2.658691 28.163896 2.08405
2006-03-07 09:03:48 51°13.597 2°56.094 -999 2.658794 28.164251 2.08405
2006-03-07 09:03:52 51°13.597 2°56.094 -999 2.658794 28.163402 2.08405
2006-03-07 09:03:58 51°13.597 2°56.094 -999 2.658587 28.160994 2.08405
2006-03-07 09:04:03 51°13.597 2°56.094 -999 2.658381 28.158585 2.08405
2006-03-07 09:04:08 51°13.597 2°56.094 -999 2.658277 28.157381 2.08405
2006-03-07 09:04:13 51°13.597 2°56.094 -999 2.658277 28.157381 2.08405
2006-03-07 09:04:18 51°13.597 2°56.094 -999 2.658071 28.155821 2.08405
2006-03-07 09:04:23 51°13.597 2°56.094 -999 2.657864 28.154261 2.08405
2006-03-07 09:04:28 51°13.597 2°56.094 -999 2.657967 28.154617 2.08405
2006-03-07 09:04:33 51°13.597 2°56.094 -999 2.658071 28.15667 2.08405
2006-03-07 09:04:38 51°13.597 2°56.094 -999 2.658174 28.157874 2.08405
2006-03-07 09:04:43 51°13.597 2°56.094 -999 2.658174 28.157874 2.08405
2006-03-07 09:04:48 51°13.597 2°56.094 -999 2.658381 28.160283 2.08405
2006-03-07 09:04:53 51°13.597 2°56.094 -999 2.658484 28.160638 2.08405
2006-03-07 09:04:58 51°13.597 2°56.094 -999 2.658484 28.160638 2.08405
2006-03-07 09:05:04 51°13.597 2°56.094 -999 2.658587 28.161842 2.08405
2006-03-07 09:05:08 51°13.597 2°56.094 -999 2.658587 28.160994 2.08405
2006-03-07 09:05:13 51°13.596 2°56.094 -999 2.658587 28.160994 2.08405
2006-03-07 09:05:18 51°13.597 2°56.094 -999 2.658587 28.160994 2.08405
2006-03-07 09:05:23 51°13.597 2°56.094 -999 2.658691 28.161349 2.08405
2006-03-07 09:05:28 51°13.597 2°56.094 -999 2.658794 28.161705 2.08405
2006-03-07 09:05:33 51°13.597 2°56.094 -999 2.658794 28.161705 2.08405
2006-03-07 09:05:38 51°13.596 2°56.094 -999 2.658898 28.16206 2.08405
2006-03-07 09:05:43 51°13.596 2°56.094 -999 2.658898 28.16206 2.08405
2006-03-07 09:05:48 51°13.596 2°56.094 -999 2.659001 28.163264 2.08405
2006-03-07 09:05:52 51°13.596 2°56.094 -999 2.659001 28.164113 2.08405
2006-03-07 09:05:58 51°13.596 2°56.094 -999 2.659104 28.165317 2.08405
2006-03-07 09:06:03 51°13.596 2°56.094 -999 2.659104 28.165317 2.08405
2006-03-07 09:06:08 51°13.596 2°56.094 -999 2.659208 28.16737 2.08405
2006-03-07 09:06:13 51°13.596 2°56.094 -999 2.659208 28.16737 2.08405
2006-03-07 09:06:18 51°13.596 2°56.094 -999 2.659311 28.167725 2.08405
2006-03-07 09:06:23 51°13.596 2°56.094 -999 2.659414 28.16893 2.08405
2006-03-07 09:06:28 51°13.596 2°56.094 -999 2.659414 28.16893 2.08405
2006-03-07 09:06:33 51°13.596 2°56.094 -999 2.659518 28.170983 2.08405
2006-03-07 09:06:38 51°13.596 2°56.094 -999 2.659518 28.170983 2.08405
2006-03-07 09:06:43 51°13.596 2°56.093 -999 2.659518 28.170983 2.08405
2006-03-07 09:06:48 51°13.596 2°56.091 -999 2.659311 28.167725 2.08405
2006-03-07 09:06:53 51°13.597 2°56.089 -999 2.655797 28.125939 2.08405
2006-03-07 09:06:58 51°13.597 2°56.087 -999 2.645668 28.003765 2.151469
2006-03-07 09:07:03 51°13.598 2°56.083 -999 2.624895 27.757891 2.151469
2006-03-07 09:07:08 51°13.599 2°56.08 -999 2.609393 27.576894 2.151469
2006-03-07 09:07:14 51°13.6 2°56.075 -999 2.609393 27.576894 2.151469
2006-03-07 09:07:19 51°13.601 2°56.07 -999 2.599472 27.462496 2.151469
2006-03-07 09:07:24 51°13.602 2°56.065 -999 2.593478 27.392083 2.151469
2006-03-07 09:07:28 51°13.603 2°56.061 -999 2.585727 27.302134 2.185178
2006-03-07 09:07:34 51°13.605 2°56.054 -999 2.584177 27.284971 2.421144
2006-03-07 09:07:39 51°13.606 2°56.047 -999 2.584901 27.293364 2.690819
2006-03-07 09:07:44 51°13.607 2°56.04 -999 2.584901 27.293364 2.690819
2006-03-07 09:07:49 51°13.608 2°56.034 -999 2.586347 27.310152 2.825657
2006-03-07 09:07:54 51°13.61 2°56.027 -999 2.587174 27.320568 2.893076
2006-03-07 09:07:59 51°13.611 2°56.02 -999 2.588414 27.334136 3.027913
2006-03-07 09:08:04 51°13.613 2°56.013 -999 2.588207 27.331737 3.095332
2006-03-07 09:08:09 51°13.614 2°56.007 -999 2.587484 27.324989 3.162751
2006-03-07 09:08:14 51°13.615 2°56 -999 2.587484 27.324989 3.162751
2006-03-07 09:08:19 51°13.617 2°55.993 -999 2.588207 27.333384 3.162751
2006-03-07 09:08:24 51°13.619 2°55.987 -999 2.586554 27.315019 3.129042
2006-03-07 09:08:29 51°13.621 2°55.98 -999 2.584177 27.288259 3.129042
2006-03-07 09:08:34 51°13.623 2°55.973 -999 2.5818 27.25986 3.061623
2006-03-07 09:08:39 51°13.624 2°55.967 -999 2.577667 27.211906 3.027913
2006-03-07 09:08:44 51°13.626 2°55.96 -999 2.577667 27.211906 3.027913
2006-03-07 09:08:49 51°13.628 2°55.954 -999 2.57095 27.133188 2.994204
2006-03-07 09:08:54 51°13.63 2°55.947 -999 2.566196 27.078076 2.960494
2006-03-07 09:08:59 51°13.632 2°55.94 -999 2.564233 27.056132 2.893076
2006-03-07 09:09:04 51°13.634 2°55.933 -999 2.563303 27.045352 2.893076
2006-03-07 09:09:09 51°13.636 2°55.926 -999 2.564233 27.056132 2.825657
2006-03-07 09:09:14 51°13.638 2°55.919 -999 2.564233 27.056132 2.825657
2006-03-07 09:09:19 51°13.64 2°55.912 -999 2.56599 27.075681 2.825657
2006-03-07 09:09:24 51°13.643 2°55.905 -999 2.56785 27.096428 2.791947
2006-03-07 09:09:28 51°13.644 2°55.9 -999 2.571157 27.135584 2.758238
2006-03-07 09:09:34 51°13.647 2°55.891 -999 2.575393 27.184718 2.724529
2006-03-07 09:09:39 51°13.649 2°55.884 -999 2.580147 27.239856 2.724529
2006-03-07 09:09:44 51°13.651 2°55.877 -999 2.580147 27.239856 2.724529
2006-03-07 09:09:49 51°13.653 2°55.87 -999 2.584177 27.286615 2.690819
2006-03-07 09:09:54 51°13.655 2°55.863 -999 2.590171 27.356173 2.65711
2006-03-07 09:09:59 51°13.657 2°55.855 -999 2.595958 27.424179 2.65711
2006-03-07 09:10:04 51°13.659 2°55.848 -999 2.600298 27.476235 2.65711
2006-03-07 09:10:09 51°13.662 2°55.841 -999 2.604742 27.52785 2.65711
2006-03-07 09:10:14 51°13.664 2°55.833 -999 2.608256 27.570332 2.6234
2006-03-07 09:10:19 51°13.666 2°55.826 -999 2.608256 27.570332 2.6234
2006-03-07 09:10:24 51°13.668 2°55.819 -999 2.610116 27.591948 2.6234
2006-03-07 09:10:28 51°13.67 2°55.813 -999 2.61053 27.596751 2.6234
2006-03-07 09:10:34 51°13.672 2°55.804 -999 2.61084 27.600354 2.589691
2006-03-07 09:10:39 51°13.674 2°55.797 -999 2.609703 27.587144 2.589691
2006-03-07 09:10:44 51°13.677 2°55.789 -999 2.609703 27.587144 2.589691
2006-03-07 09:10:49 51°13.679 2°55.781 -999 2.609186 27.581971 2.589691
2006-03-07 09:10:54 51°13.682 2°55.773 -999 2.609186 27.581971 2.589691
2006-03-07 09:10:59 51°13.684 2°55.765 -999 2.608876 27.579199 2.589691
2006-03-07 09:11:04 51°13.687 2°55.757 -999 2.607739 27.56599 2.555982
2006-03-07 09:11:08 51°13.689 2°55.751 -999 2.605982 27.545576 2.555982
2006-03-07 09:11:14 51°13.691 2°55.742 -999 2.605982 27.545576 2.555982
2006-03-07 09:11:19 51°13.693 2°55.736 -999 2.604122 27.523964 2.589691
2006-03-07 09:11:24 51°13.695 2°55.729 -999 2.603605 27.517132 2.589691
2006-03-07 09:11:28 51°13.696 2°55.725 -999 2.604846 27.531539 2.589691
2006-03-07 09:11:34 51°13.698 2°55.72 -999 2.607533 27.561927 2.589691
2006-03-07 09:11:38 51°13.698 2°55.718 -999 2.610116 27.591948 2.6234
2006-03-07 09:11:43 51°13.699 2°55.717 -999 2.610116 27.591948 2.6234
2006-03-07 09:11:48 51°13.699 2°55.717 -999 2.61177 27.611163 2.6234
2006-03-07 09:11:53 51°13.7 2°55.718 -999 2.61208 27.614766 2.65711
2006-03-07 09:11:58 51°13.7 2°55.72 -999 2.611356 27.605527 2.690819
2006-03-07 09:12:03 51°13.701 2°55.723 -999 2.609393 27.581879 2.6234
2006-03-07 09:12:08 51°13.703 2°55.726 -999 2.607532 27.559436 2.6234
2006-03-07 09:12:12 51°13.704 2°55.729 -999 2.607532 27.559436 2.6234
2006-03-07 09:12:18 51°13.707 2°55.734 -999 2.605362 27.534224 2.6234
2006-03-07 09:12:23 51°13.709 2°55.738 -999 2.600608 27.47818 2.6234
2006-03-07 09:12:28 51°13.712 2°55.742 -999 2.594201 27.402131 2.589691
2006-03-07 09:12:33 51°13.716 2°55.745 -999 2.586037 27.305732 2.589691
2006-03-07 09:12:38 51°13.719 2°55.748 -999 2.57777 27.209006 2.589691
2006-03-07 09:12:43 51°13.722 2°55.75 -999 2.57777 27.209006 2.589691
2006-03-07 09:12:48 51°13.725 2°55.752 -999 2.56847 27.098718 2.6234
2006-03-07 09:12:53 51°13.727 2°55.753 -999 2.557103 26.964561 2.65711
2006-03-07 09:12:58 51°13.729 2°55.754 -999 2.54925 26.871992 2.724529
2006-03-07 09:13:03 51°13.73 2°55.754 -999 2.543876 26.808173 2.758238
2006-03-07 09:13:08 51°13.731 2°55.754 -999 2.541913 26.783837 2.791947
2006-03-07 09:13:12 51°13.731 2°55.754 -999 2.541913 26.783837 2.791947
2006-03-07 09:13:18 51°13.73 2°55.753 -999 2.540363 26.765095 2.825657
2006-03-07 09:13:23 51°13.729 2°55.752 -999 2.53344 26.682591 2.893076
2006-03-07 09:13:28 51°13.728 2°55.752 -999 2.510812 26.417047 2.960494
2006-03-07 09:13:34 51°13.725 2°55.751 -999 2.477646 26.028803 2.960494
2006-03-07 09:13:39 51°13.723 2°55.751 -999 2.446239 25.661617 2.926785
2006-03-07 09:13:44 51°13.721 2°55.75 -999 2.446239 25.661617 2.926785
2006-03-07 09:13:48 51°13.72 2°55.75 -999 2.423821 25.398456 2.893076
2006-03-07 09:13:53 51°13.719 2°55.749 -999 2.404297 25.170428 2.859366
2006-03-07 09:13:59 51°13.718 2°55.749 -999 2.396652 25.081199 2.859366
2006-03-07 09:14:04 51°13.719 2°55.748 -999 2.393657 25.045328 2.825657
2006-03-07 09:14:09 51°13.721 2°55.747 -999 2.397582 25.088847 2.825657
2006-03-07 09:14:14 51°13.724 2°55.745 -999 2.397582 25.088847 2.825657
2006-03-07 09:14:19 51°13.728 2°55.742 -999 2.40502 25.175699 2.791947
2006-03-07 09:14:24 51°13.732 2°55.738 -999 2.418139 25.327081 2.758238
2006-03-07 09:14:29 51°13.738 2°55.732 -999 2.432808 25.497924 2.758238
2006-03-07 09:14:34 51°13.744 2°55.725 -999 2.444069 25.628943 2.758238
2006-03-07 09:14:38 51°13.75 2°55.719 -999 2.45409 25.746563 2.758238
2006-03-07 09:14:44 51°13.76 2°55.708 -999 2.45409 25.746563 2.758238
2006-03-07 09:14:48 51°13.768 2°55.701 -999 2.457603 25.786995 2.724529
2006-03-07 09:14:53 51°13.777 2°55.69 -999 2.451921 25.723916 2.690819
2006-03-07 09:14:58 51°13.788 2°55.68 -999 2.446755 25.662929 2.690819
2006-03-07 09:15:03 51°13.799 2°55.669 -999 2.434151 25.515664 2.758238
2006-03-07 09:15:08 51°13.811 2°55.659 -999 2.421961 25.374799 2.960494
2006-03-07 09:15:13 51°13.823 2°55.648 -999 2.421961 25.374799 2.960494
2006-03-07 09:15:18 51°13.835 2°55.637 -999 2.421858 25.372849 3.331298
2006-03-07 09:15:23 51°13.848 2°55.627 -999 2.433738 25.509379 3.600973
2006-03-07 09:15:28 51°13.861 2°55.617 -999 2.443449 25.622584 3.735811
2006-03-07 09:15:33 51°13.874 2°55.607 -999 2.450371 25.704534 3.735811
2006-03-07 09:15:38 51°13.886 2°55.598 -999 2.459462 25.811509 3.668392
2006-03-07 09:15:43 51°13.899 2°55.589 -999 2.459462 25.811509 3.668392
2006-03-07 09:15:48 51°13.911 2°55.579 -999 2.468451 25.917364 3.600973
2006-03-07 09:15:53 51°13.924 2°55.57 -999 2.481262 26.068926 3.466136
2006-03-07 09:15:58 51°13.937 2°55.561 -999 2.493144 26.209117 3.398717
2006-03-07 09:16:03 51°13.949 2°55.553 -999 2.501513 26.30887 3.263879
2006-03-07 09:16:08 51°13.962 2°55.544 -999 2.510295 26.41426 3.162751
2006-03-07 09:16:12 51°13.971 2°55.536 -999 2.510295 26.41426 3.162751
2006-03-07 09:16:18 51°13.986 2°55.526 -999 2.520731 26.537242 3.095332
2006-03-07 09:16:23 51°13.999 2°55.518 -999 2.533647 26.688999 3.027913
2006-03-07 09:16:28 51°14.011 2°55.509 -999 2.5446 26.816545 2.994204
2006-03-07 09:16:32 51°14.021 2°55.502 -999 2.554106 26.927419 2.926785
2006-03-07 09:16:38 51°14.036 2°55.491 -999 2.561753 27.017619 2.859366
2006-03-07 09:16:43 51°14.048 2°55.483 -999 2.561753 27.017619 2.859366
2006-03-07 09:16:48 51°14.06 2°55.474 -999 2.566403 27.072316 2.859366
2006-03-07 09:16:53 51°14.072 2°55.465 -999 2.568263 27.093874 2.791947
2006-03-07 09:16:58 51°14.085 2°55.456 -999 2.57064 27.122239 2.758238
2006-03-07 09:17:03 51°14.097 2°55.447 -999 2.571777 27.136234 2.724529
2006-03-07 09:17:08 51°14.109 2°55.438 -999 2.571777 27.136234 2.690819
2006-03-07 09:17:13 51°14.121 2°55.428 -999 2.571777 27.136234 2.690819
2006-03-07 09:17:18 51°14.133 2°55.417 -999 2.570743 27.125071 2.65711
2006-03-07 09:17:23 51°14.145 2°55.406 -999 2.567436 27.087556 2.65711
2006-03-07 09:17:28 51°14.157 2°55.395 -999 2.561443 27.018909 2.6234
2006-03-07 09:17:33 51°14.169 2°55.382 -999 2.550696 26.893601 2.6234
2006-03-07 09:17:38 51°14.181 2°55.369 -999 2.541087 26.781529 2.589691
2006-03-07 09:17:43 51°14.194 2°55.355 -999 2.541087 26.781529 2.589691
2006-03-07 09:17:48 51°14.206 2°55.34 -999 2.533853 26.697821 2.6234
2006-03-07 09:17:53 51°14.218 2°55.325 -999 2.528687 26.63805 2.6234
2006-03-07 09:17:58 51°14.23 2°55.309 -999 2.525381 26.599003 2.65711
2006-03-07 09:18:03 51°14.241 2°55.293 -999 2.526104 26.606567 2.690819
2006-03-07 09:18:08 51°14.253 2°55.275 -999 2.528894 26.638033 2.690819
2006-03-07 09:18:12 51°14.262 2°55.261 -999 2.528894 26.638033 2.690819
2006-03-07 09:18:18 51°14.276 2°55.239 -999 2.531684 26.670305 2.690819
2006-03-07 09:18:23 51°14.286 2°55.22 -999 2.531994 26.673891 2.690819
2006-03-07 09:18:28 51°14.298 2°55.2 -999 2.530444 26.655159 2.690819
2006-03-07 09:18:33 51°14.308 2°55.18 -999 2.53127 26.664721 2.724529
2006-03-07 09:18:38 51°14.319 2°55.16 -999 2.53437 26.700582 2.724529
2006-03-07 09:18:43 51°14.329 2°55.139 -999 2.53437 26.700582 2.724529
2006-03-07 09:18:48 51°14.34 2°55.118 -999 2.539743 26.765175 2.724529
2006-03-07 09:18:53 51°14.351 2°55.097 -999 2.547493 26.854889 2.724529
2006-03-07 09:18:58 51°14.363 2°55.077 -999 2.55576 26.950625 2.724529
2006-03-07 09:19:03 51°14.375 2°55.058 -999 2.56382 27.044008 2.690819
2006-03-07 09:19:08 51°14.387 2°55.039 -999 2.57033 27.119463 2.690819
2006-03-07 09:19:12 51°14.398 2°55.024 -999 2.57033 27.119463 2.690819
2006-03-07 09:19:18 51°14.414 2°55.002 -999 2.574463 27.165747 2.690819
2006-03-07 09:19:23 51°14.427 2°54.985 -999 2.578597 27.211218 2.690819
2006-03-07 09:19:28 51°14.44 2°54.968 -999 2.588104 27.321484 2.690819
2006-03-07 09:19:33 51°14.454 2°54.951 -999 2.598748 27.444175 2.690819
2006-03-07 09:19:38 51°14.467 2°54.936 -999 2.608979 27.562128 2.65711
2006-03-07 09:19:43 51°14.479 2°54.923 -999 2.608979 27.562128 2.65711
2006-03-07 09:19:48 51°14.49 2°54.911 -999 2.622207 27.715797 2.65711
2006-03-07 09:19:52 51°14.499 2°54.902 -999 2.635333 27.868372 2.690819
2006-03-07 09:19:58 51°14.511 2°54.891 -999 2.650422 28.048128 2.724529
2006-03-07 09:20:03 51°14.521 2°54.882 -999 2.666442 28.240617 2.724529
2006-03-07 09:20:08 51°14.531 2°54.876 -999 2.682256 28.430935 2.724529
2006-03-07 09:20:13 51°14.539 2°54.87 -999 2.682256 28.430935 2.724529
2006-03-07 09:20:18 51°14.547 2°54.866 -999 2.702929 28.679941 2.690819
2006-03-07 09:20:23 51°14.555 2°54.863 -999 2.728668 28.996451 2.6234
2006-03-07 09:20:28 51°14.563 2°54.86 -999 2.74986 29.262172 2.589691
2006-03-07 09:20:33 51°14.569 2°54.858 -999 2.764849 29.448574 2.589691
2006-03-07 09:20:38 51°14.576 2°54.857 -999 2.775704 29.584897 2.555982
2006-03-07 09:20:43 51°14.582 2°54.855 -999 2.775704 29.584897 2.555982
2006-03-07 09:20:48 51°14.588 2°54.854 -999 2.784595 29.698291 2.522272
2006-03-07 09:20:53 51°14.594 2°54.854 -999 2.794003 29.817882 2.522272
2006-03-07 09:20:58 51°14.599 2°54.854 -999 2.799793 29.892305 2.488563
2006-03-07 09:21:04 51°14.605 2°54.854 -999 2.803619 29.94275 2.488563
2006-03-07 09:21:08 51°14.61 2°54.854 -999 2.806927 29.98623 2.488563
2006-03-07 09:21:13 51°14.614 2°54.855 -999 2.806927 29.98623 2.488563
2006-03-07 09:21:18 51°14.619 2°54.855 -999 2.809925 30.023351 2.488563
2006-03-07 09:21:23 51°14.623 2°54.856 -999 2.81282 30.061993 2.488563
2006-03-07 09:21:28 51°14.627 2°54.857 -999 2.814164 30.081467 2.454853
2006-03-07 09:21:33 51°14.632 2°54.858 -999 2.816232 30.108565 2.454853
2006-03-07 09:21:38 51°14.637 2°54.859 -999 2.816956 30.118917 2.454853
2006-03-07 09:21:43 51°14.644 2°54.861 -999 2.816956 30.118917 2.454853
2006-03-07 09:21:48 51°14.651 2°54.862 -999 2.817886 30.130796 2.454853
2006-03-07 09:21:52 51°14.658 2°54.863 -999 2.819644 30.154252 2.454853
2006-03-07 09:21:58 51°14.669 2°54.864 -999 2.820885 30.173445 2.454853
2006-03-07 09:22:03 51°14.679 2°54.863 -999 2.821298 30.181062 2.421144
2006-03-07 09:22:08 51°14.69 2°54.863 -999 2.822436 30.198132 2.421144
2006-03-07 09:22:13 51°14.702 2°54.861 -999 2.822436 30.198132 2.421144
2006-03-07 09:22:18 51°14.714 2°54.858 -999 2.82316 30.210327 2.421144
2006-03-07 09:22:23 51°14.727 2°54.855 -999 2.82316 30.213072 2.421144
2006-03-07 09:22:28 51°14.74 2°54.851 -999 2.823263 30.216122 2.421144
2006-03-07 09:22:34 51°14.757 2°54.844 -999 2.819644 30.174344 2.421144
2006-03-07 09:22:38 51°14.768 2°54.838 -999 2.818404 30.158795 2.387435
2006-03-07 09:22:43 51°14.781 2°54.831 -999 2.818404 30.158795 2.387435
2006-03-07 09:22:48 51°14.793 2°54.822 -999 2.818093 30.154223 2.387435
2006-03-07 09:22:53 51°14.807 2°54.811 -999 2.819541 30.170383 2.387435
2006-03-07 09:22:58 51°14.821 2°54.8 -999 2.82316 30.211242 2.387435
2006-03-07 09:23:03 51°14.834 2°54.787 -999 2.823056 30.210022 2.387435
2006-03-07 09:23:08 51°14.847 2°54.774 -999 2.822643 30.205143 2.387435
2006-03-07 09:23:13 51°14.861 2°54.758 -999 2.822643 30.205143 2.387435
2006-03-07 09:23:18 51°14.874 2°54.744 -999 2.822126 30.198131 2.387435
2006-03-07 09:23:23 51°14.887 2°54.728 -999 2.821919 30.196606 2.353725
2006-03-07 09:23:28 51°14.901 2°54.712 -999 2.821195 30.188068 2.387435
2006-03-07 09:23:33 51°14.915 2°54.696 -999 2.820471 30.179531 2.353725
2006-03-07 09:23:38 51°14.929 2°54.68 -999 2.819334 30.167944 2.387435
2006-03-07 09:23:43 51°14.942 2°54.664 -999 2.819334 30.167944 2.387435
2006-03-07 09:23:48 51°14.956 2°54.647 -999 2.8183 30.155748 2.387435
2006-03-07 09:23:52 51°14.968 2°54.633 -999 2.817266 30.143554 2.387435
2006-03-07 09:23:58 51°14.985 2°54.614 -999 2.816956 30.14446 2.387435
2006-03-07 09:24:03 51°14.999 2°54.597 -999 2.816439 30.141101 2.387435
2006-03-07 09:24:08 51°15.014 2°54.582 -999 2.815199 30.129203 2.387435
2006-03-07 09:24:13 51°15.028 2°54.567 -999 2.815199 30.129203 2.387435
2006-03-07 09:24:18 51°15.042 2°54.552 -999 2.813854 30.116085 2.421144
2006-03-07 09:24:23 51°15.057 2°54.537 -999 2.812821 30.105712 2.421144
2006-03-07 09:24:28 51°15.072 2°54.522 -999 2.811787 30.093515 2.421144
2006-03-07 09:24:33 51°15.087 2°54.507 -999 2.810339 30.07644 2.421144
2006-03-07 09:24:38 51°15.101 2°54.493 -999 2.808995 30.056944 2.387435
2006-03-07 09:24:43 51°15.117 2°54.477 -999 2.808995 30.056944 2.387435
2006-03-07 09:24:48 51°15.131 2°54.462 -999 2.808478 30.049937 2.387435
2006-03-07 09:24:53 51°15.145 2°54.446 -999 2.808995 30.059676 2.387435
2006-03-07 09:24:58 51°15.159 2°54.43 -999 2.810133 30.078558 2.353725
2006-03-07 09:25:03 51°15.174 2°54.413 -999 2.81127 30.097448 2.353725
2006-03-07 09:25:08 51°15.189 2°54.396 -999 2.81189 30.108419 2.353725
2006-03-07 09:25:12 51°15.201 2°54.383 -999 2.81189 30.108419 2.353725
2006-03-07 09:25:18 51°15.218 2°54.363 -999 2.812304 30.114213 2.353725
2006-03-07 09:25:23 51°15.233 2°54.347 -999 2.813234 30.125196 2.353725
2006-03-07 09:25:28 51°15.248 2°54.332 -999 2.814992 30.145943 2.353725
2006-03-07 09:25:33 51°15.264 2°54.317 -999 2.816646 30.163643 2.353725
2006-03-07 09:25:38 51°15.278 2°54.303 -999 2.8183 30.180427 2.353725
2006-03-07 09:25:43 51°15.294 2°54.288 -999 2.8183 30.180427 2.353725
2006-03-07 09:25:48 51°15.308 2°54.273 -999 2.820472 30.203312 2.387435
2006-03-07 09:25:53 51°15.324 2°54.257 -999 2.82378 30.240539 2.387435
2006-03-07 09:25:58 51°15.338 2°54.241 -999 2.827812 30.289986 2.421144
2006-03-07 09:26:04 51°15.356 2°54.222 -999 2.830604 30.323874 2.421144
2006-03-07 09:26:08 51°15.367 2°54.209 -999 2.833499 30.360831 2.421144
2006-03-07 09:26:12 51°15.379 2°54.196 -999 2.833499 30.360831 2.421144
2006-03-07 09:26:18 51°15.396 2°54.175 -999 2.835877 30.392613 2.421144
2006-03-07 09:26:23 51°15.411 2°54.158 -999 2.838772 30.431439 2.387435
2006-03-07 09:26:28 51°15.425 2°54.142 -999 2.840944 30.458953 2.387435
2006-03-07 09:26:33 51°15.44 2°54.126 -999 2.843115 30.489247 2.387435
2006-03-07 09:26:38 51°15.454 2°54.11 -999 2.844873 30.516513 2.387435
2006-03-07 09:26:43 51°15.47 2°54.094 -999 2.844873 30.516513 2.387435
2006-03-07 09:26:48 51°15.483 2°54.079 -999 2.84539 30.524481 2.387435
2006-03-07 09:26:53 51°15.498 2°54.064 -999 2.844666 30.516844 2.387435
2006-03-07 09:26:58 51°15.513 2°54.047 -999 2.844563 30.519325 2.353725
2006-03-07 09:27:03 51°15.527 2°54.031 -999 2.843839 30.513539 2.353725
2006-03-07 09:27:08 51°15.542 2°54.015 -999 2.843012 30.503753 2.320016
2006-03-07 09:27:12 51°15.553 2°54.001 -999 2.843012 30.503753 2.320016
2006-03-07 09:27:18 51°15.571 2°53.981 -999 2.842081 30.493668 2.320016
2006-03-07 09:27:23 51°15.586 2°53.964 -999 2.841254 30.484807 2.286306
2006-03-07 09:27:28 51°15.601 2°53.947 -999 2.840944 30.485763 2.286306
2006-03-07 09:27:33 51°15.616 2°53.931 -999 2.840634 30.485794 2.286306
2006-03-07 09:27:38 51°15.63 2°53.914 -999 2.840634 30.491348 2.252597
2006-03-07 09:27:43 51°15.645 2°53.898 -999 2.840634 30.491348 2.252597
2006-03-07 09:27:48 51°15.66 2°53.881 -999 2.840634 30.495051 2.286306
2006-03-07 09:27:53 51°15.675 2°53.865 -999 2.84053 30.494753 2.286306
2006-03-07 09:27:58 51°15.69 2°53.849 -999 2.840634 30.495051 2.286306
2006-03-07 09:28:03 51°15.705 2°53.832 -999 2.840841 30.493795 2.286306
2006-03-07 09:28:08 51°15.72 2°53.815 -999 2.841151 30.495615 2.286306
2006-03-07 09:28:13 51°15.735 2°53.798 -999 2.841151 30.495615 2.286306
2006-03-07 09:28:18 51°15.75 2°53.782 -999 2.841668 30.50266 2.252597
2006-03-07 09:28:23 51°15.765 2°53.765 -999 2.841875 30.504182 2.252597
2006-03-07 09:28:28 51°15.78 2°53.749 -999 2.842185 30.508779 2.218888
2006-03-07 09:28:33 51°15.795 2°53.732 -999 2.842391 30.510301 2.218888
2006-03-07 09:28:38 51°15.81 2°53.716 -999 2.842702 30.513972 2.218888
2006-03-07 09:28:43 51°15.825 2°53.701 -999 2.842702 30.513972 2.218888
2006-03-07 09:28:48 51°15.841 2°53.684 -999 2.843012 30.519497 2.185178
2006-03-07 09:28:53 51°15.856 2°53.668 -999 2.843322 30.525023 2.185178
2006-03-07 09:28:58 51°15.87 2°53.652 -999 2.843529 30.527471 2.185178
2006-03-07 09:29:03 51°15.885 2°53.636 -999 2.843632 30.530549 2.185178
2006-03-07 09:29:08 51°15.901 2°53.618 -999 2.843632 30.529622 2.185178
2006-03-07 09:29:12 51°15.913 2°53.605 -999 2.843632 30.529622 2.185178
2006-03-07 09:29:18 51°15.931 2°53.586 -999 2.843632 30.529622 2.185178
2006-03-07 09:29:23 51°15.946 2°53.569 -999 2.843839 30.53207 2.185178
2006-03-07 09:29:28 51°15.961 2°53.554 -999 2.844149 30.538525 2.151469
2006-03-07 09:29:33 51°15.977 2°53.538 -999 2.844149 30.537597 2.185178
2006-03-07 09:29:38 51°15.993 2°53.522 -999 2.844149 30.537597 2.151469
2006-03-07 09:29:43 51°16.008 2°53.507 -999 2.844149 30.537597 2.151469
2006-03-07 09:29:48 51°16.023 2°53.491 -999 2.844356 30.540973 2.151469
2006-03-07 09:29:53 51°16.038 2°53.475 -999 2.844873 30.546167 2.185178
2006-03-07 09:29:58 51°16.055 2°53.458 -999 2.845493 30.551657 2.218888
2006-03-07 09:30:03 51°16.069 2°53.443 -999 2.845907 30.551916 2.252597
2006-03-07 09:30:08 51°16.085 2°53.427 -999 2.846424 30.553398 2.252597
2006-03-07 09:30:13 51°16.1 2°53.411 -999 2.846424 30.553398 2.252597
2006-03-07 09:30:18 51°16.116 2°53.396 -999 2.847044 30.556104 2.252597
2006-03-07 09:30:23 51°16.131 2°53.38 -999 2.847458 30.554508 2.286306
2006-03-07 09:30:28 51°16.147 2°53.365 -999 2.847975 30.555062 2.320016
2006-03-07 09:30:32 51°16.159 2°53.353 -999 2.846837 30.536048 2.320016
2006-03-07 09:30:38 51°16.179 2°53.334 -999 2.849215 30.561399 2.320016
2006-03-07 09:30:44 51°16.197 2°53.317 -999 2.849215 30.561399 2.320016
2006-03-07 09:30:48 51°16.21 2°53.305 -999 2.850146 30.573334 2.353725
2006-03-07 09:30:53 51°16.226 2°53.289 -999 2.850766 30.579746 2.353725
2006-03-07 09:30:58 51°16.241 2°53.275 -999 2.85118 30.583711 2.353725
2006-03-07 09:31:03 51°16.257 2°53.258 -999 2.851593 30.585821 2.353725
2006-03-07 09:31:08 51°16.272 2°53.243 -999 2.852007 30.588858 2.353725
2006-03-07 09:31:12 51°16.284 2°53.23 -999 2.852007 30.588858 2.353725
2006-03-07 09:31:18 51°16.302 2°53.212 -999 2.852421 30.591895 2.353725
2006-03-07 09:31:23 51°16.318 2°53.196 -999 2.852627 30.592486 2.353725
2006-03-07 09:31:28 51°16.334 2°53.18 -999 2.853248 30.597968 2.353725
2006-03-07 09:31:33 51°16.349 2°53.165 -999 2.853661 30.601004 2.320016
2006-03-07 09:31:38 51°16.363 2°53.15 -999 2.854695 30.611377 2.320016
2006-03-07 09:31:43 51°16.379 2°53.134 -999 2.854695 30.611377 2.320016
2006-03-07 09:31:48 51°16.394 2°53.118 -999 2.855316 30.61593 2.286306
2006-03-07 09:31:53 51°16.409 2°53.102 -999 2.856143 30.624784 2.252597
2006-03-07 09:31:58 51°16.424 2°53.086 -999 2.856867 30.631487 2.252597
2006-03-07 09:32:03 51°16.44 2°53.07 -999 2.857384 30.634815 2.218888
2006-03-07 09:32:08 51°16.455 2°53.054 -999 2.858004 30.640295 2.218888
2006-03-07 09:32:13 51°16.47 2°53.038 -999 2.858004 30.640295 2.218888
2006-03-07 09:32:18 51°16.485 2°53.023 -999 2.858314 30.641177 2.218888
2006-03-07 09:32:23 51°16.5 2°53.006 -999 2.858935 30.647584 2.218888
2006-03-07 09:32:28 51°16.516 2°52.991 -999 2.859245 30.650323 2.218888
2006-03-07 09:32:33 51°16.532 2°52.975 -999 2.859762 30.654578 2.218888
2006-03-07 09:32:38 51°16.547 2°52.96 -999 2.860175 30.65761 2.252597
2006-03-07 09:32:43 51°16.562 2°52.945 -999 2.860175 30.65761 2.252597
2006-03-07 09:32:48 51°16.578 2°52.929 -999 2.860279 30.655118 2.252597
2006-03-07 09:32:52 51°16.59 2°52.917 -999 2.860589 30.655071 2.286306
2006-03-07 09:32:58 51°16.608 2°52.899 -999 2.861416 30.664848 2.252597
2006-03-07 09:33:03 51°16.624 2°52.883 -999 2.861933 30.67096 2.252597
2006-03-07 09:33:08 51°16.64 2°52.867 -999 2.86214 30.673404 2.252597
2006-03-07 09:33:13 51°16.655 2°52.851 -999 2.86214 30.673404 2.252597
2006-03-07 09:33:18 51°16.671 2°52.836 -999 2.862864 30.68196 2.252597
2006-03-07 09:33:23 51°16.686 2°52.821 -999 2.863174 30.688416 2.252597
2006-03-07 09:33:28 51°16.702 2°52.805 -999 2.863691 30.695458 2.252597
2006-03-07 09:33:33 51°16.717 2°52.79 -999 2.864104 30.700348 2.218888
2006-03-07 09:33:38 51°16.733 2°52.775 -999 2.864725 30.705823 2.218888
2006-03-07 09:33:43 51°16.748 2°52.761 -999 2.864725 30.705823 2.218888
2006-03-07 09:33:48 51°16.764 2°52.745 -999 2.865242 30.711006 2.218888
2006-03-07 09:33:53 51°16.779 2°52.73 -999 2.865655 30.714965 2.218888
2006-03-07 09:33:58 51°16.794 2°52.715 -999 2.866069 30.720786 2.218888
2006-03-07 09:34:03 51°16.809 2°52.7 -999 2.866379 30.725384 2.185178
2006-03-07 09:34:08 51°16.825 2°52.684 -999 2.866793 30.731206 2.185178
2006-03-07 09:34:13 51°16.841 2°52.669 -999 2.866793 30.731206 2.185178
2006-03-07 09:34:18 51°16.857 2°52.654 -999 2.866793 30.730275 2.185178
2006-03-07 09:34:23 51°16.871 2°52.64 -999 2.866896 30.73429 2.151469
2006-03-07 09:34:28 51°16.888 2°52.627 -999 2.867103 30.738598 2.117759
2006-03-07 09:34:33 51°16.905 2°52.614 -999 2.86731 30.740113 2.117759
2006-03-07 09:34:38 51°16.921 2°52.604 -999 2.867413 30.741335 2.117759
2006-03-07 09:34:43 51°16.939 2°52.594 -999 2.867413 30.741335 2.117759
2006-03-07 09:34:48 51°16.956 2°52.584 -999 2.867827 30.745295 2.08405
2006-03-07 09:34:53 51°16.973 2°52.575 -999 2.868344 30.749547 2.08405
2006-03-07 09:34:58 51°16.99 2°52.568 -999 2.868861 30.753798 2.050341
2006-03-07 09:35:03 51°17.007 2°52.559 -999 2.869688 30.761716 2.050341
2006-03-07 09:35:08 51°17.025 2°52.552 -999 2.870309 30.771849 2.050341
2006-03-07 09:35:13 51°17.043 2°52.546 -999 2.870309 30.771849 2.050341
2006-03-07 09:35:18 51°17.061 2°52.54 -999 2.871032 30.783206 2.050341
2006-03-07 09:35:23 51°17.078 2°52.535 -999 2.871549 30.791187 2.050341
2006-03-07 09:35:28 51°17.096 2°52.529 -999 2.871963 30.796079 2.016631
2006-03-07 09:35:33 51°17.114 2°52.524 -999 2.872997 30.807378 2.016631
2006-03-07 09:35:38 51°17.132 2°52.519 -999 2.874134 30.821767 2.050341
2006-03-07 09:35:43 51°17.149 2°52.515 -999 2.874134 30.821767 2.050341
2006-03-07 09:35:48 51°17.167 2°52.51 -999 2.875375 30.836447 2.016631
2006-03-07 09:35:53 51°17.185 2°52.507 -999 2.877133 30.857246 2.016631
2006-03-07 09:35:58 51°17.203 2°52.502 -999 2.878684 30.874663 2.016631
2006-03-07 09:36:03 51°17.221 2°52.498 -999 2.880442 30.895465 2.016631
2006-03-07 09:36:08 51°17.239 2°52.493 -999 2.882924 30.927645 2.016631
2006-03-07 09:36:13 51°17.257 2°52.488 -999 2.882924 30.927645 2.016631
2006-03-07 09:36:18 51°17.275 2°52.484 -999 2.884578 30.948167 2.016631
2006-03-07 09:36:23 51°17.294 2°52.478 -999 2.88644 30.971139 2.016631
2006-03-07 09:36:28 51°17.311 2°52.473 -999 2.887887 30.989218 2.016631
2006-03-07 09:36:33 51°17.329 2°52.469 -999 2.889438 31.008524 2.016631
2006-03-07 09:36:38 51°17.347 2°52.464 -999 2.890576 31.021054 2.016631
2006-03-07 09:36:43 51°17.366 2°52.459 -999 2.890576 31.021054 2.016631
2006-03-07 09:36:48 51°17.383 2°52.454 -999 2.89192 31.036033 2.016631
2006-03-07 09:36:53 51°17.401 2°52.449 -999 2.893161 31.05261 2.016631
2006-03-07 09:36:58 51°17.419 2°52.445 -999 2.893885 31.05836 2.016631
2006-03-07 09:37:03 51°17.437 2°52.439 -999 2.894919 31.070607 2.016631
2006-03-07 09:37:08 51°17.455 2°52.434 -999 2.895539 31.076072 1.982922
2006-03-07 09:37:13 51°17.472 2°52.429 -999 2.895539 31.076072 1.982922
2006-03-07 09:37:18 51°17.491 2°52.424 -999 2.896263 31.083704 1.982922
2006-03-07 09:37:23 51°17.509 2°52.42 -999 2.897091 31.093501 1.982922
2006-03-07 09:37:28 51°17.526 2°52.417 -999 2.897711 31.10085 1.982922
2006-03-07 09:37:33 51°17.545 2°52.415 -999 2.898538 31.108764 1.982922
2006-03-07 09:37:38 51°17.563 2°52.413 -999 2.899262 31.115452 1.949212
2006-03-07 09:37:44 51°17.584 2°52.412 -999 2.899262 31.115452 1.949212
2006-03-07 09:37:48 51°17.598 2°52.411 -999 2.900089 31.12525 1.982922
2006-03-07 09:37:53 51°17.616 2°52.412 -999 2.901123 31.137498 1.982922
2006-03-07 09:37:58 51°17.634 2°52.412 -999 2.90164 31.140793 2.016631
2006-03-07 09:38:03 51°17.652 2°52.412 -999 2.902778 31.157097 2.016631
2006-03-07 09:38:08 51°17.67 2°52.414 -999 2.903398 31.167279 2.016631
2006-03-07 09:38:13 51°17.688 2°52.415 -999 2.903398 31.167279 2.016631
2006-03-07 09:38:18 51°17.705 2°52.416 -999 2.903605 31.171618 2.050341
2006-03-07 09:38:23 51°17.723 2°52.418 -999 2.903605 31.172563 2.050341
2006-03-07 09:38:28 51°17.741 2°52.421 -999 2.903502 31.172282 2.050341
2006-03-07 09:38:34 51°17.762 2°52.425 -999 2.902881 31.167764 2.08405
2006-03-07 09:38:38 51°17.776 2°52.428 -999 2.902261 31.161356 2.08405
2006-03-07 09:38:43 51°17.794 2°52.432 -999 2.902261 31.161356 2.08405
2006-03-07 09:38:48 51°17.811 2°52.436 -999 2.901537 31.154667 2.151469
2006-03-07 09:38:53 51°17.829 2°52.44 -999 2.90071 31.144864 2.151469
2006-03-07 09:38:58 51°17.847 2°52.445 -999 2.899986 31.138174 2.151469
2006-03-07 09:39:04 51°17.868 2°52.451 -999 2.899262 31.132428 2.151469
2006-03-07 09:39:08 51°17.882 2°52.456 -999 2.898642 31.126019 2.151469
2006-03-07 09:39:13 51°17.898 2°52.462 -999 2.898642 31.126019 2.151469
2006-03-07 09:39:18 51°17.916 2°52.471 -999 2.898228 31.122061 2.151469
2006-03-07 09:39:24 51°17.937 2°52.48 -999 2.897815 31.117159 2.151469
2006-03-07 09:39:28 51°17.95 2°52.487 -999 2.897401 31.1132 2.151469
2006-03-07 09:39:33 51°17.967 2°52.495 -999 2.897194 31.11075 2.117759
2006-03-07 09:39:38 51°17.984 2°52.504 -999 2.897091 31.107638 2.117759
2006-03-07 09:39:44 51°18.004 2°52.514 -999 2.897091 31.107638 2.117759
2006-03-07 09:39:48 51°18.017 2°52.523 -999 2.89678 31.101134 2.117759
2006-03-07 09:39:53 51°18.033 2°52.533 -999 2.896884 31.100474 2.117759
2006-03-07 09:39:58 51°18.05 2°52.544 -999 2.89678 31.098307 2.117759
2006-03-07 09:40:03 51°18.066 2°52.556 -999 2.89678 31.099249 2.117759
2006-03-07 09:40:08 51°18.081 2°52.569 -999 2.896574 31.097741 2.151469
2006-03-07 09:40:13 51°18.095 2°52.585 -999 2.896574 31.097741 2.151469
2006-03-07 09:40:18 51°18.11 2°52.601 -999 2.89616 31.090956 2.151469
2006-03-07 09:40:23 51°18.125 2°52.616 -999 2.89585 31.087281 2.185178
2006-03-07 09:40:28 51°18.138 2°52.634 -999 2.895333 31.08304 2.185178
2006-03-07 09:40:33 51°18.151 2°52.653 -999 2.894816 31.077857 2.185178
2006-03-07 09:40:38 51°18.162 2°52.673 -999 2.894195 31.07239 2.185178
2006-03-07 09:40:43 51°18.173 2°52.695 -999 2.894195 31.07239 2.185178
2006-03-07 09:40:48 51°18.183 2°52.717 -999 2.893678 31.067206 2.218888
2006-03-07 09:40:53 51°18.192 2°52.74 -999 2.893161 31.062023 2.218888
2006-03-07 09:40:58 51°18.2 2°52.765 -999 2.892748 31.056181 2.218888
2006-03-07 09:41:03 51°18.207 2°52.79 -999 2.892334 31.048457 2.218888
2006-03-07 09:41:08 51°18.213 2°52.815 -999 2.891817 31.045156 2.252597
2006-03-07 09:41:12 51°18.218 2°52.836 -999 2.891817 31.045156 2.252597